<?xml version="1.0" encoding="UTF-8" standalone="no" ?>
<gpx xmlns="http://www.topografix.com/GPX/1/1" creator="MapSource 6.11.6" version="1.1" xmlns:xsi="http://www.w3.org/2001/XMLSchema-instance" xsi:schemaLocation="http://www.topografix.com/GPX/1/1 http://www.topografix.com/GPX/1/1/gpx.xsd">

  <metadata>
    <link href="http://www.garmin.com">
      <text>Garmin International</text>
    </link>
    <time>2011-04-05T09:47:03Z</time>
    <bounds maxlat="42.165298" maxlon="1.599522" minlat="42.135888" minlon="1.576076"/>
  </metadata>

  <trk>
    <name>Camino 001</name>
    <extensions>
      <gpxx:TrackExtension xmlns:gpxx="http://www.garmin.com/xmlschemas/GpxExtensions/v3" xmlns:xsi="http://www.w3.org/2001/XMLSchema-instance" xsi:schemaLocation="http://www.garmin.com/xmlschemas/GpxExtensions/v3 http://www.garmin.com/xmlschemas/GpxExtensions/v3/GpxExtensionsv3.xsd">
        <gpxx:DisplayColor>White</gpxx:DisplayColor>
      </gpxx:TrackExtension>
    </extensions>
    <trkseg>
      <trkpt lat="42.135888" lon="1.592334">
        <ele>910.000000</ele>
        <time>2010-08-15T08:52:12Z</time>
      </trkpt>
      <trkpt lat="42.135888" lon="1.592334">
        <ele>910.000000</ele>
        <time>2010-08-15T08:52:13Z</time>
      </trkpt>
      <trkpt lat="42.136149" lon="1.592283">
        <ele>909.500000</ele>
        <time>2010-08-15T08:52:37Z</time>
      </trkpt>
      <trkpt lat="42.136450" lon="1.592315">
        <ele>906.700000</ele>
        <time>2010-08-15T08:52:44Z</time>
      </trkpt>
      <trkpt lat="42.136719" lon="1.592373">
        <ele>904.300000</ele>
        <time>2010-08-15T08:52:49Z</time>
      </trkpt>
      <trkpt lat="42.136957" lon="1.592581">
        <ele>905.700000</ele>
        <time>2010-08-15T08:52:54Z</time>
      </trkpt>
      <trkpt lat="42.137231" lon="1.592685">
        <ele>908.600000</ele>
        <time>2010-08-15T08:53:12Z</time>
      </trkpt>
      <trkpt lat="42.137489" lon="1.592610">
        <ele>909.100000</ele>
        <time>2010-08-15T08:53:27Z</time>
      </trkpt>
      <trkpt lat="42.137729" lon="1.592557">
        <ele>908.100000</ele>
        <time>2010-08-15T08:53:41Z</time>
      </trkpt>
      <trkpt lat="42.138059" lon="1.592632">
        <ele>903.300000</ele>
        <time>2010-08-15T08:53:50Z</time>
      </trkpt>
      <trkpt lat="42.138364" lon="1.592905">
        <ele>897.000000</ele>
        <time>2010-08-15T08:53:55Z</time>
      </trkpt>
      <trkpt lat="42.138546" lon="1.593168">
        <ele>892.700000</ele>
        <time>2010-08-15T08:53:59Z</time>
      </trkpt>
      <trkpt lat="42.138681" lon="1.593370">
        <ele>891.800000</ele>
        <time>2010-08-15T08:54:21Z</time>
      </trkpt>
      <trkpt lat="42.138886" lon="1.593584">
        <ele>888.400000</ele>
        <time>2010-08-15T08:54:28Z</time>
      </trkpt>
      <trkpt lat="42.138984" lon="1.593936">
        <ele>887.900000</ele>
        <time>2010-08-15T08:54:34Z</time>
      </trkpt>
      <trkpt lat="42.139097" lon="1.594293">
        <ele>887.000000</ele>
        <time>2010-08-15T08:54:41Z</time>
      </trkpt>
      <trkpt lat="42.139298" lon="1.594531">
        <ele>885.000000</ele>
        <time>2010-08-15T08:54:47Z</time>
      </trkpt>
      <trkpt lat="42.139618" lon="1.594663">
        <ele>880.200000</ele>
        <time>2010-08-15T08:54:52Z</time>
      </trkpt>
      <trkpt lat="42.139885" lon="1.594508">
        <ele>876.900000</ele>
        <time>2010-08-15T08:54:56Z</time>
      </trkpt>
      <trkpt lat="42.140158" lon="1.594430">
        <ele>874.900000</ele>
        <time>2010-08-15T08:55:00Z</time>
      </trkpt>
      <trkpt lat="42.140425" lon="1.594692">
        <ele>872.100000</ele>
        <time>2010-08-15T08:55:05Z</time>
      </trkpt>
      <trkpt lat="42.140585" lon="1.595105">
        <ele>868.700000</ele>
        <time>2010-08-15T08:55:10Z</time>
      </trkpt>
      <trkpt lat="42.140754" lon="1.595449">
        <ele>865.800000</ele>
        <time>2010-08-15T08:55:14Z</time>
      </trkpt>
      <trkpt lat="42.140984" lon="1.595734">
        <ele>864.400000</ele>
        <time>2010-08-15T08:55:18Z</time>
      </trkpt>
      <trkpt lat="42.141205" lon="1.595995">
        <ele>862.400000</ele>
        <time>2010-08-15T08:55:22Z</time>
      </trkpt>
      <trkpt lat="42.141400" lon="1.596270">
        <ele>862.000000</ele>
        <time>2010-08-15T08:55:28Z</time>
      </trkpt>
      <trkpt lat="42.141495" lon="1.596499">
        <ele>855.700000</ele>
        <time>2010-08-15T08:55:58Z</time>
      </trkpt>
      <trkpt lat="42.141243" lon="1.596724">
        <ele>851.400000</ele>
        <time>2010-08-15T08:56:08Z</time>
      </trkpt>
      <trkpt lat="42.141005" lon="1.596934">
        <ele>849.500000</ele>
        <time>2010-08-15T08:56:15Z</time>
      </trkpt>
      <trkpt lat="42.140964" lon="1.597344">
        <ele>846.100000</ele>
        <time>2010-08-15T08:56:30Z</time>
      </trkpt>
      <trkpt lat="42.140775" lon="1.597671">
        <ele>843.200000</ele>
        <time>2010-08-15T08:56:39Z</time>
      </trkpt>
      <trkpt lat="42.140586" lon="1.597933">
        <ele>839.400000</ele>
        <time>2010-08-15T08:56:47Z</time>
      </trkpt>
      <trkpt lat="42.140301" lon="1.598095">
        <ele>835.500000</ele>
        <time>2010-08-15T08:56:58Z</time>
      </trkpt>
      <trkpt lat="42.140255" lon="1.598234">
        <ele>830.200000</ele>
        <time>2010-08-15T08:57:11Z</time>
      </trkpt>
      <trkpt lat="42.140462" lon="1.598514">
        <ele>825.900000</ele>
        <time>2010-08-15T08:57:23Z</time>
      </trkpt>
      <trkpt lat="42.140604" lon="1.598818">
        <ele>823.500000</ele>
        <time>2010-08-15T08:57:31Z</time>
      </trkpt>
      <trkpt lat="42.140639" lon="1.599188">
        <ele>822.100000</ele>
        <time>2010-08-15T08:57:40Z</time>
      </trkpt>
      <trkpt lat="42.140723" lon="1.599462">
        <ele>820.600000</ele>
        <time>2010-08-15T08:58:25Z</time>
      </trkpt>
      <trkpt lat="42.140975" lon="1.599507">
        <ele>821.100000</ele>
        <time>2010-08-15T08:58:38Z</time>
      </trkpt>
      <trkpt lat="42.141278" lon="1.599522">
        <ele>819.200000</ele>
        <time>2010-08-15T08:59:49Z</time>
      </trkpt>
      <trkpt lat="42.141420" lon="1.599306">
        <ele>819.200000</ele>
        <time>2010-08-15T09:00:22Z</time>
      </trkpt>
      <trkpt lat="42.141440" lon="1.598925">
        <ele>820.100000</ele>
        <time>2010-08-15T09:00:34Z</time>
      </trkpt>
      <trkpt lat="42.141549" lon="1.598567">
        <ele>821.600000</ele>
        <time>2010-08-15T09:00:47Z</time>
      </trkpt>
      <trkpt lat="42.141771" lon="1.598523">
        <ele>824.000000</ele>
        <time>2010-08-15T09:01:00Z</time>
      </trkpt>
      <trkpt lat="42.141861" lon="1.598863">
        <ele>826.400000</ele>
        <time>2010-08-15T09:01:14Z</time>
      </trkpt>
      <trkpt lat="42.141941" lon="1.599207">
        <ele>826.400000</ele>
        <time>2010-08-15T09:01:30Z</time>
      </trkpt>
      <trkpt lat="42.142153" lon="1.599009">
        <ele>829.800000</ele>
        <time>2010-08-15T09:01:44Z</time>
      </trkpt>
      <trkpt lat="42.142351" lon="1.598733">
        <ele>835.500000</ele>
        <time>2010-08-15T09:02:02Z</time>
      </trkpt>
      <trkpt lat="42.142470" lon="1.598420">
        <ele>839.400000</ele>
        <time>2010-08-15T09:02:20Z</time>
      </trkpt>
      <trkpt lat="42.142640" lon="1.598142">
        <ele>842.700000</ele>
        <time>2010-08-15T09:02:38Z</time>
      </trkpt>
      <trkpt lat="42.142877" lon="1.597954">
        <ele>844.200000</ele>
        <time>2010-08-15T09:03:07Z</time>
      </trkpt>
      <trkpt lat="42.143145" lon="1.597836">
        <ele>844.700000</ele>
        <time>2010-08-15T09:03:16Z</time>
      </trkpt>
      <trkpt lat="42.143384" lon="1.597648">
        <ele>846.600000</ele>
        <time>2010-08-15T09:03:27Z</time>
      </trkpt>
      <trkpt lat="42.143628" lon="1.597450">
        <ele>849.000000</ele>
        <time>2010-08-15T09:03:42Z</time>
      </trkpt>
      <trkpt lat="42.143881" lon="1.597276">
        <ele>850.900000</ele>
        <time>2010-08-15T09:03:56Z</time>
      </trkpt>
      <trkpt lat="42.144144" lon="1.597136">
        <ele>853.300000</ele>
        <time>2010-08-15T09:04:12Z</time>
      </trkpt>
      <trkpt lat="42.144426" lon="1.597069">
        <ele>854.700000</ele>
        <time>2010-08-15T09:04:26Z</time>
      </trkpt>
      <trkpt lat="42.144608" lon="1.596858">
        <ele>857.600000</ele>
        <time>2010-08-15T09:04:41Z</time>
      </trkpt>
      <trkpt lat="42.144607" lon="1.596503">
        <ele>860.500000</ele>
        <time>2010-08-15T09:04:59Z</time>
      </trkpt>
      <trkpt lat="42.144730" lon="1.596251">
        <ele>861.500000</ele>
        <time>2010-08-15T09:06:13Z</time>
      </trkpt>
      <trkpt lat="42.145059" lon="1.596272">
        <ele>860.000000</ele>
        <time>2010-08-15T09:06:21Z</time>
      </trkpt>
      <trkpt lat="42.145344" lon="1.596322">
        <ele>858.100000</ele>
        <time>2010-08-15T09:06:26Z</time>
      </trkpt>
      <trkpt lat="42.145595" lon="1.596422">
        <ele>857.200000</ele>
        <time>2010-08-15T09:06:30Z</time>
      </trkpt>
      <trkpt lat="42.145870" lon="1.596529">
        <ele>854.300000</ele>
        <time>2010-08-15T09:06:37Z</time>
      </trkpt>
      <trkpt lat="42.146272" lon="1.596666">
        <ele>852.300000</ele>
        <time>2010-08-15T09:06:42Z</time>
      </trkpt>
      <trkpt lat="42.146594" lon="1.596785">
        <ele>851.400000</ele>
        <time>2010-08-15T09:06:48Z</time>
      </trkpt>
      <trkpt lat="42.146883" lon="1.596885">
        <ele>849.500000</ele>
        <time>2010-08-15T09:06:55Z</time>
      </trkpt>
      <trkpt lat="42.147210" lon="1.596825">
        <ele>849.000000</ele>
        <time>2010-08-15T09:07:01Z</time>
      </trkpt>
      <trkpt lat="42.147510" lon="1.596802">
        <ele>849.500000</ele>
        <time>2010-08-15T09:07:06Z</time>
      </trkpt>
      <trkpt lat="42.147790" lon="1.596794">
        <ele>848.500000</ele>
        <time>2010-08-15T09:07:11Z</time>
      </trkpt>
      <trkpt lat="42.148101" lon="1.596727">
        <ele>847.100000</ele>
        <time>2010-08-15T09:07:16Z</time>
      </trkpt>
      <trkpt lat="42.148378" lon="1.596790">
        <ele>848.000000</ele>
        <time>2010-08-15T09:07:21Z</time>
      </trkpt>
      <trkpt lat="42.148672" lon="1.596904">
        <ele>848.000000</ele>
        <time>2010-08-15T09:07:28Z</time>
      </trkpt>
      <trkpt lat="42.148949" lon="1.597003">
        <ele>848.000000</ele>
        <time>2010-08-15T09:07:34Z</time>
      </trkpt>
      <trkpt lat="42.149249" lon="1.597094">
        <ele>845.600000</ele>
        <time>2010-08-15T09:07:40Z</time>
      </trkpt>
      <trkpt lat="42.149567" lon="1.597088">
        <ele>843.700000</ele>
        <time>2010-08-15T09:07:45Z</time>
      </trkpt>
      <trkpt lat="42.149866" lon="1.597132">
        <ele>844.700000</ele>
        <time>2010-08-15T09:07:50Z</time>
      </trkpt>
      <trkpt lat="42.150171" lon="1.597171">
        <ele>847.100000</ele>
        <time>2010-08-15T09:07:57Z</time>
      </trkpt>
      <trkpt lat="42.150462" lon="1.597222">
        <ele>847.500000</ele>
        <time>2010-08-15T09:08:05Z</time>
      </trkpt>
      <trkpt lat="42.150723" lon="1.597200">
        <ele>849.000000</ele>
        <time>2010-08-15T09:08:14Z</time>
      </trkpt>
      <trkpt lat="42.151027" lon="1.597317">
        <ele>845.100000</ele>
        <time>2010-08-15T09:08:24Z</time>
      </trkpt>
      <trkpt lat="42.151260" lon="1.597578">
        <ele>845.100000</ele>
        <time>2010-08-15T09:08:32Z</time>
      </trkpt>
      <trkpt lat="42.151508" lon="1.597732">
        <ele>846.600000</ele>
        <time>2010-08-15T09:08:43Z</time>
      </trkpt>
      <trkpt lat="42.151820" lon="1.597756">
        <ele>847.500000</ele>
        <time>2010-08-15T09:08:54Z</time>
      </trkpt>
      <trkpt lat="42.152040" lon="1.597570">
        <ele>848.000000</ele>
        <time>2010-08-15T09:09:07Z</time>
      </trkpt>
      <trkpt lat="42.152242" lon="1.597363">
        <ele>852.800000</ele>
        <time>2010-08-15T09:09:35Z</time>
      </trkpt>
      <trkpt lat="42.152506" lon="1.597317">
        <ele>857.200000</ele>
        <time>2010-08-15T09:10:26Z</time>
      </trkpt>
      <trkpt lat="42.152774" lon="1.597400">
        <ele>856.200000</ele>
        <time>2010-08-15T09:10:46Z</time>
      </trkpt>
      <trkpt lat="42.153051" lon="1.597276">
        <ele>857.200000</ele>
        <time>2010-08-15T09:11:01Z</time>
      </trkpt>
      <trkpt lat="42.153348" lon="1.597146">
        <ele>858.100000</ele>
        <time>2010-08-15T09:11:14Z</time>
      </trkpt>
      <trkpt lat="42.153625" lon="1.597185">
        <ele>860.000000</ele>
        <time>2010-08-15T09:11:28Z</time>
      </trkpt>
      <trkpt lat="42.153949" lon="1.597185">
        <ele>864.800000</ele>
        <time>2010-08-15T09:11:46Z</time>
      </trkpt>
      <trkpt lat="42.154171" lon="1.597047">
        <ele>871.100000</ele>
        <time>2010-08-15T09:12:34Z</time>
      </trkpt>
      <trkpt lat="42.154449" lon="1.596918">
        <ele>874.000000</ele>
        <time>2010-08-15T09:12:53Z</time>
      </trkpt>
      <trkpt lat="42.154704" lon="1.596844">
        <ele>873.000000</ele>
        <time>2010-08-15T09:13:20Z</time>
      </trkpt>
      <trkpt lat="42.154934" lon="1.596975">
        <ele>871.100000</ele>
        <time>2010-08-15T09:13:35Z</time>
      </trkpt>
      <trkpt lat="42.155191" lon="1.596969">
        <ele>873.500000</ele>
        <time>2010-08-15T09:13:51Z</time>
      </trkpt>
      <trkpt lat="42.155441" lon="1.597039">
        <ele>876.400000</ele>
        <time>2010-08-15T09:14:07Z</time>
      </trkpt>
      <trkpt lat="42.155665" lon="1.596949">
        <ele>879.300000</ele>
        <time>2010-08-15T09:14:22Z</time>
      </trkpt>
      <trkpt lat="42.155892" lon="1.596777">
        <ele>881.200000</ele>
        <time>2010-08-15T09:14:38Z</time>
      </trkpt>
      <trkpt lat="42.156163" lon="1.596726">
        <ele>879.700000</ele>
        <time>2010-08-15T09:17:19Z</time>
      </trkpt>
      <trkpt lat="42.156452" lon="1.596588">
        <ele>879.700000</ele>
        <time>2010-08-15T09:17:28Z</time>
      </trkpt>
      <trkpt lat="42.156734" lon="1.596567">
        <ele>879.300000</ele>
        <time>2010-08-15T09:17:36Z</time>
      </trkpt>
      <trkpt lat="42.157034" lon="1.596577">
        <ele>878.800000</ele>
        <time>2010-08-15T09:17:43Z</time>
      </trkpt>
      <trkpt lat="42.157327" lon="1.596667">
        <ele>877.300000</ele>
        <time>2010-08-15T09:17:49Z</time>
      </trkpt>
      <trkpt lat="42.157605" lon="1.596804">
        <ele>875.400000</ele>
        <time>2010-08-15T09:17:57Z</time>
      </trkpt>
      <trkpt lat="42.157907" lon="1.596833">
        <ele>872.500000</ele>
        <time>2010-08-15T09:18:03Z</time>
      </trkpt>
      <trkpt lat="42.158067" lon="1.597121">
        <ele>871.100000</ele>
        <time>2010-08-15T09:18:10Z</time>
      </trkpt>
      <trkpt lat="42.158181" lon="1.597273">
        <ele>872.100000</ele>
        <time>2010-08-15T09:21:36Z</time>
      </trkpt>
      <trkpt lat="42.158453" lon="1.597171">
        <ele>872.500000</ele>
        <time>2010-08-15T09:21:49Z</time>
      </trkpt>
      <trkpt lat="42.158725" lon="1.597131">
        <ele>873.500000</ele>
        <time>2010-08-15T09:22:00Z</time>
      </trkpt>
      <trkpt lat="42.159005" lon="1.597069">
        <ele>874.500000</ele>
        <time>2010-08-15T09:22:11Z</time>
      </trkpt>
      <trkpt lat="42.159298" lon="1.597016">
        <ele>875.900000</ele>
        <time>2010-08-15T09:22:22Z</time>
      </trkpt>
      <trkpt lat="42.159603" lon="1.596994">
        <ele>876.900000</ele>
        <time>2010-08-15T09:22:33Z</time>
      </trkpt>
      <trkpt lat="42.159894" lon="1.596985">
        <ele>877.800000</ele>
        <time>2010-08-15T09:22:43Z</time>
      </trkpt>
      <trkpt lat="42.160182" lon="1.596976">
        <ele>879.300000</ele>
        <time>2010-08-15T09:22:53Z</time>
      </trkpt>
      <trkpt lat="42.160466" lon="1.596983">
        <ele>880.200000</ele>
        <time>2010-08-15T09:23:03Z</time>
      </trkpt>
      <trkpt lat="42.160756" lon="1.596947">
        <ele>881.700000</ele>
        <time>2010-08-15T09:23:13Z</time>
      </trkpt>
      <trkpt lat="42.161043" lon="1.596911">
        <ele>882.100000</ele>
        <time>2010-08-15T09:23:23Z</time>
      </trkpt>
      <trkpt lat="42.161324" lon="1.596881">
        <ele>883.600000</ele>
        <time>2010-08-15T09:23:33Z</time>
      </trkpt>
      <trkpt lat="42.161598" lon="1.596787">
        <ele>885.000000</ele>
        <time>2010-08-15T09:23:43Z</time>
      </trkpt>
      <trkpt lat="42.161867" lon="1.596676">
        <ele>886.000000</ele>
        <time>2010-08-15T09:23:52Z</time>
      </trkpt>
      <trkpt lat="42.162134" lon="1.596614">
        <ele>886.500000</ele>
        <time>2010-08-15T09:24:01Z</time>
      </trkpt>
      <trkpt lat="42.162425" lon="1.596554">
        <ele>887.900000</ele>
        <time>2010-08-15T09:24:11Z</time>
      </trkpt>
      <trkpt lat="42.162702" lon="1.596407">
        <ele>889.400000</ele>
        <time>2010-08-15T09:24:21Z</time>
      </trkpt>
      <trkpt lat="42.162952" lon="1.596270">
        <ele>891.300000</ele>
        <time>2010-08-15T09:24:31Z</time>
      </trkpt>
      <trkpt lat="42.163225" lon="1.596252">
        <ele>892.200000</ele>
        <time>2010-08-15T09:24:40Z</time>
      </trkpt>
      <trkpt lat="42.163460" lon="1.596455">
        <ele>893.700000</ele>
        <time>2010-08-15T09:24:50Z</time>
      </trkpt>
      <trkpt lat="42.163618" lon="1.596749">
        <ele>895.100000</ele>
        <time>2010-08-15T09:25:00Z</time>
      </trkpt>
      <trkpt lat="42.163847" lon="1.596608">
        <ele>898.000000</ele>
        <time>2010-08-15T09:25:11Z</time>
      </trkpt>
      <trkpt lat="42.164009" lon="1.596300">
        <ele>900.900000</ele>
        <time>2010-08-15T09:25:22Z</time>
      </trkpt>
      <trkpt lat="42.164212" lon="1.596037">
        <ele>901.900000</ele>
        <time>2010-08-15T09:25:32Z</time>
      </trkpt>
      <trkpt lat="42.164479" lon="1.595962">
        <ele>904.700000</ele>
        <time>2010-08-15T09:25:43Z</time>
      </trkpt>
      <trkpt lat="42.164754" lon="1.596071">
        <ele>906.200000</ele>
        <time>2010-08-15T09:25:55Z</time>
      </trkpt>
      <trkpt lat="42.164978" lon="1.596329">
        <ele>909.100000</ele>
        <time>2010-08-15T09:26:07Z</time>
      </trkpt>
      <trkpt lat="42.165109" lon="1.596354">
        <ele>920.600000</ele>
        <time>2008-07-26T08:51:00Z</time>
      </trkpt>
      <trkpt lat="42.165298" lon="1.596082">
        <ele>921.100000</ele>
        <time>2008-07-26T08:50:50Z</time>
      </trkpt>
      <trkpt lat="42.165241" lon="1.595896">
        <ele>920.100000</ele>
        <time>2008-07-26T08:50:45Z</time>
      </trkpt>
      <trkpt lat="42.165045" lon="1.595421">
        <ele>917.700000</ele>
        <time>2008-07-26T08:50:32Z</time>
      </trkpt>
      <trkpt lat="42.164895" lon="1.595069">
        <ele>912.428467</ele>
        <time>2008-05-24T13:29:09Z</time>
      </trkpt>
      <trkpt lat="42.164849" lon="1.594942">
        <ele>904.257324</ele>
        <time>2008-05-24T13:29:03Z</time>
      </trkpt>
      <trkpt lat="42.164718" lon="1.594751">
        <ele>909.063965</ele>
        <time>2008-05-24T13:28:56Z</time>
      </trkpt>
      <trkpt lat="42.164562" lon="1.594616">
        <ele>913.870361</ele>
        <time>2008-05-24T13:28:49Z</time>
      </trkpt>
      <trkpt lat="42.164424" lon="1.594471">
        <ele>916.754395</ele>
        <time>2008-05-24T13:28:43Z</time>
      </trkpt>
      <trkpt lat="42.164416" lon="1.594443">
        <ele>914.351074</ele>
        <time>2008-05-24T13:28:41Z</time>
      </trkpt>
      <trkpt lat="42.164390" lon="1.594446">
        <ele>911.947998</ele>
        <time>2008-05-24T13:28:39Z</time>
      </trkpt>
      <trkpt lat="42.164295" lon="1.594603">
        <ele>918.677002</ele>
        <time>2008-05-24T13:28:34Z</time>
      </trkpt>
      <trkpt lat="42.164154" lon="1.594559">
        <ele>916.754395</ele>
        <time>2008-05-24T13:28:28Z</time>
      </trkpt>
      <trkpt lat="42.163992" lon="1.594528">
        <ele>922.041504</ele>
        <time>2008-05-24T13:28:22Z</time>
      </trkpt>
      <trkpt lat="42.163677" lon="1.594519">
        <ele>925.886963</ele>
        <time>2008-05-24T13:28:16Z</time>
      </trkpt>
      <trkpt lat="42.163372" lon="1.594507">
        <ele>925.886963</ele>
        <time>2008-05-24T13:28:10Z</time>
      </trkpt>
      <trkpt lat="42.163076" lon="1.594521">
        <ele>916.754395</ele>
        <time>2008-05-24T13:28:04Z</time>
      </trkpt>
      <trkpt lat="42.162775" lon="1.594535">
        <ele>911.467285</ele>
        <time>2008-05-24T13:27:58Z</time>
      </trkpt>
      <trkpt lat="42.162394" lon="1.594749">
        <ele>916.754395</ele>
        <time>2008-05-24T13:27:52Z</time>
      </trkpt>
      <trkpt lat="42.162150" lon="1.594887">
        <ele>915.312500</ele>
        <time>2008-05-24T13:27:47Z</time>
      </trkpt>
      <trkpt lat="42.161849" lon="1.594928">
        <ele>913.870361</ele>
        <time>2008-05-24T13:27:41Z</time>
      </trkpt>
      <trkpt lat="42.161722" lon="1.594939">
        <ele>910.505859</ele>
        <time>2008-05-24T13:27:39Z</time>
      </trkpt>
      <trkpt lat="42.161340" lon="1.595036">
        <ele>908.583252</ele>
        <time>2008-05-24T13:27:34Z</time>
      </trkpt>
      <trkpt lat="42.160751" lon="1.595211">
        <ele>904.257324</ele>
        <time>2008-05-24T13:27:26Z</time>
      </trkpt>
      <trkpt lat="42.160225" lon="1.595415">
        <ele>903.776611</ele>
        <time>2008-05-24T13:27:19Z</time>
      </trkpt>
      <trkpt lat="42.159822" lon="1.595438">
        <ele>906.179688</ele>
        <time>2008-05-24T13:27:14Z</time>
      </trkpt>
      <trkpt lat="42.159107" lon="1.595343">
        <ele>912.909180</ele>
        <time>2008-05-24T13:27:06Z</time>
      </trkpt>
      <trkpt lat="42.158301" lon="1.595225">
        <ele>913.870361</ele>
        <time>2008-05-24T13:26:57Z</time>
      </trkpt>
      <trkpt lat="42.157740" lon="1.595183">
        <ele>925.406250</ele>
        <time>2008-05-24T13:26:51Z</time>
      </trkpt>
      <trkpt lat="42.157286" lon="1.595141">
        <ele>931.174316</ele>
        <time>2008-05-24T13:26:45Z</time>
      </trkpt>
      <trkpt lat="42.156941" lon="1.595140">
        <ele>935.500000</ele>
        <time>2008-05-24T13:26:40Z</time>
      </trkpt>
      <trkpt lat="42.156394" lon="1.595235">
        <ele>946.555420</ele>
        <time>2008-05-24T13:26:34Z</time>
      </trkpt>
      <trkpt lat="42.155852" lon="1.595371">
        <ele>954.726318</ele>
        <time>2008-05-24T13:26:27Z</time>
      </trkpt>
      <trkpt lat="42.155770" lon="1.595379">
        <ele>955.687744</ele>
        <time>2008-05-24T13:26:26Z</time>
      </trkpt>
      <trkpt lat="42.155233" lon="1.595315">
        <ele>970.588135</ele>
        <time>2008-05-24T13:26:19Z</time>
      </trkpt>
      <trkpt lat="42.154666" lon="1.595277">
        <ele>966.262207</ele>
        <time>2008-05-24T13:26:11Z</time>
      </trkpt>
      <trkpt lat="42.154448" lon="1.595154">
        <ele>960.494385</ele>
        <time>2008-05-24T13:26:07Z</time>
      </trkpt>
      <trkpt lat="42.154371" lon="1.595067">
        <ele>956.649170</ele>
        <time>2008-05-24T13:26:05Z</time>
      </trkpt>
      <trkpt lat="42.154273" lon="1.594826">
        <ele>950.400635</ele>
        <time>2008-05-24T13:26:01Z</time>
      </trkpt>
      <trkpt lat="42.154242" lon="1.594525">
        <ele>935.019531</ele>
        <time>2008-05-24T13:25:55Z</time>
      </trkpt>
      <trkpt lat="42.154246" lon="1.594149">
        <ele>924.925781</ele>
        <time>2008-05-24T13:25:48Z</time>
      </trkpt>
      <trkpt lat="42.154234" lon="1.593891">
        <ele>930.212891</ele>
        <time>2008-05-24T13:25:42Z</time>
      </trkpt>
      <trkpt lat="42.154208" lon="1.593689">
        <ele>938.384033</ele>
        <time>2008-05-24T13:25:38Z</time>
      </trkpt>
      <trkpt lat="42.154167" lon="1.593445">
        <ele>944.632568</ele>
        <time>2008-05-24T13:25:33Z</time>
      </trkpt>
      <trkpt lat="42.154057" lon="1.593207">
        <ele>938.864746</ele>
        <time>2008-05-24T13:25:26Z</time>
      </trkpt>
      <trkpt lat="42.153892" lon="1.593010">
        <ele>935.980713</ele>
        <time>2008-05-24T13:25:20Z</time>
      </trkpt>
      <trkpt lat="42.153637" lon="1.593050">
        <ele>944.632568</ele>
        <time>2008-05-24T13:25:13Z</time>
      </trkpt>
      <trkpt lat="42.153480" lon="1.593093">
        <ele>950.400635</ele>
        <time>2008-05-24T13:25:08Z</time>
      </trkpt>
      <trkpt lat="42.153275" lon="1.593254">
        <ele>954.245850</ele>
        <time>2008-05-24T13:25:02Z</time>
      </trkpt>
      <trkpt lat="42.153134" lon="1.593397">
        <ele>952.803711</ele>
        <time>2008-05-24T13:24:56Z</time>
      </trkpt>
      <trkpt lat="42.153016" lon="1.593628">
        <ele>956.649170</ele>
        <time>2008-05-24T13:24:49Z</time>
      </trkpt>
      <trkpt lat="42.152906" lon="1.593840">
        <ele>957.129883</ele>
        <time>2008-05-24T13:24:43Z</time>
      </trkpt>
      <trkpt lat="42.152812" lon="1.593994">
        <ele>951.361816</ele>
        <time>2008-05-24T13:24:37Z</time>
      </trkpt>
      <trkpt lat="42.152697" lon="1.594136">
        <ele>943.190674</ele>
        <time>2008-05-24T13:24:30Z</time>
      </trkpt>
      <trkpt lat="42.152516" lon="1.594240">
        <ele>941.268066</ele>
        <time>2008-05-24T13:24:23Z</time>
      </trkpt>
      <trkpt lat="42.152363" lon="1.594211">
        <ele>935.500000</ele>
        <time>2008-05-24T13:24:17Z</time>
      </trkpt>
      <trkpt lat="42.152212" lon="1.594278">
        <ele>936.461426</ele>
        <time>2008-05-24T13:24:12Z</time>
      </trkpt>
      <trkpt lat="42.151984" lon="1.594371">
        <ele>933.096680</ele>
        <time>2008-05-24T13:24:05Z</time>
      </trkpt>
      <trkpt lat="42.151780" lon="1.594486">
        <ele>931.654785</ele>
        <time>2008-05-24T13:23:59Z</time>
      </trkpt>
      <trkpt lat="42.151626" lon="1.594537">
        <ele>933.577393</ele>
        <time>2008-05-24T13:23:53Z</time>
      </trkpt>
      <trkpt lat="42.151402" lon="1.594593">
        <ele>930.693604</ele>
        <time>2008-05-24T13:23:46Z</time>
      </trkpt>
      <trkpt lat="42.151154" lon="1.594646">
        <ele>923.964111</ele>
        <time>2008-05-24T13:23:38Z</time>
      </trkpt>
      <trkpt lat="42.150957" lon="1.594656">
        <ele>928.290283</ele>
        <time>2008-05-24T13:23:32Z</time>
      </trkpt>
      <trkpt lat="42.150717" lon="1.594611">
        <ele>931.174316</ele>
        <time>2008-05-24T13:23:24Z</time>
      </trkpt>
      <trkpt lat="42.150498" lon="1.594528">
        <ele>936.461426</ele>
        <time>2008-05-24T13:23:17Z</time>
      </trkpt>
      <trkpt lat="42.150273" lon="1.594399">
        <ele>945.113281</ele>
        <time>2008-05-24T13:23:10Z</time>
      </trkpt>
      <trkpt lat="42.150070" lon="1.594259">
        <ele>955.687744</ele>
        <time>2008-05-24T13:23:03Z</time>
      </trkpt>
      <trkpt lat="42.149934" lon="1.594059">
        <ele>955.687744</ele>
        <time>2008-05-24T13:22:56Z</time>
      </trkpt>
      <trkpt lat="42.149861" lon="1.593859">
        <ele>953.284424</ele>
        <time>2008-05-24T13:22:49Z</time>
      </trkpt>
      <trkpt lat="42.149808" lon="1.593691">
        <ele>942.710205</ele>
        <time>2008-05-24T13:22:42Z</time>
      </trkpt>
      <trkpt lat="42.149734" lon="1.593513">
        <ele>931.174316</ele>
        <time>2008-05-24T13:22:35Z</time>
      </trkpt>
      <trkpt lat="42.149656" lon="1.593386">
        <ele>926.367676</ele>
        <time>2008-05-24T13:22:28Z</time>
      </trkpt>
      <trkpt lat="42.149522" lon="1.593270">
        <ele>926.848389</ele>
        <time>2008-05-24T13:22:21Z</time>
      </trkpt>
      <trkpt lat="42.149393" lon="1.593211">
        <ele>924.445068</ele>
        <time>2008-05-24T13:22:15Z</time>
      </trkpt>
      <trkpt lat="42.149308" lon="1.593215">
        <ele>923.964111</ele>
        <time>2008-05-24T13:22:10Z</time>
      </trkpt>
      <trkpt lat="42.149169" lon="1.593279">
        <ele>926.848389</ele>
        <time>2008-05-24T13:22:05Z</time>
      </trkpt>
      <trkpt lat="42.149025" lon="1.593302">
        <ele>929.732178</ele>
        <time>2008-05-24T13:21:59Z</time>
      </trkpt>
      <trkpt lat="42.148882" lon="1.593408">
        <ele>933.577393</ele>
        <time>2008-05-24T13:21:52Z</time>
      </trkpt>
      <trkpt lat="42.148788" lon="1.593467">
        <ele>931.174316</ele>
        <time>2008-05-24T13:21:46Z</time>
      </trkpt>
      <trkpt lat="42.148639" lon="1.593550">
        <ele>933.096680</ele>
        <time>2008-05-24T13:21:39Z</time>
      </trkpt>
      <trkpt lat="42.148605" lon="1.593538">
        <ele>928.770996</ele>
        <time>2008-05-24T13:21:35Z</time>
      </trkpt>
      <trkpt lat="42.148457" lon="1.593620">
        <ele>921.560791</ele>
        <time>2008-05-24T13:21:28Z</time>
      </trkpt>
      <trkpt lat="42.148277" lon="1.593683">
        <ele>923.964111</ele>
        <time>2008-05-24T13:21:22Z</time>
      </trkpt>
      <trkpt lat="42.148179" lon="1.593642">
        <ele>917.715576</ele>
        <time>2008-05-24T13:21:15Z</time>
      </trkpt>
      <trkpt lat="42.147994" lon="1.593582">
        <ele>920.599609</ele>
        <time>2008-05-24T13:21:07Z</time>
      </trkpt>
      <trkpt lat="42.147867" lon="1.593534">
        <ele>920.118896</ele>
        <time>2008-05-24T13:21:01Z</time>
      </trkpt>
      <trkpt lat="42.147752" lon="1.593480">
        <ele>920.118896</ele>
        <time>2008-05-24T13:20:55Z</time>
      </trkpt>
      <trkpt lat="42.147587" lon="1.593422">
        <ele>917.235107</ele>
        <time>2008-05-24T13:20:47Z</time>
      </trkpt>
      <trkpt lat="42.147487" lon="1.593376">
        <ele>911.467285</ele>
        <time>2008-05-24T13:20:41Z</time>
      </trkpt>
      <trkpt lat="42.147393" lon="1.593298">
        <ele>909.544678</ele>
        <time>2008-05-24T13:20:34Z</time>
      </trkpt>
      <trkpt lat="42.147267" lon="1.593276">
        <ele>911.947998</ele>
        <time>2008-05-24T13:20:27Z</time>
      </trkpt>
      <trkpt lat="42.147090" lon="1.593264">
        <ele>908.583252</ele>
        <time>2008-05-24T13:20:19Z</time>
      </trkpt>
      <trkpt lat="42.146955" lon="1.593219">
        <ele>907.141113</ele>
        <time>2008-05-24T13:20:12Z</time>
      </trkpt>
      <trkpt lat="42.146845" lon="1.593143">
        <ele>903.295898</ele>
        <time>2008-05-24T13:20:04Z</time>
      </trkpt>
      <trkpt lat="42.146786" lon="1.593105">
        <ele>900.892578</ele>
        <time>2008-05-24T13:19:59Z</time>
      </trkpt>
      <trkpt lat="42.146707" lon="1.593062">
        <ele>896.086182</ele>
        <time>2008-05-24T13:19:52Z</time>
      </trkpt>
      <trkpt lat="42.146585" lon="1.593046">
        <ele>899.450684</ele>
        <time>2008-05-24T13:19:46Z</time>
      </trkpt>
      <trkpt lat="42.146402" lon="1.593026">
        <ele>912.909180</ele>
        <time>2008-05-24T13:19:37Z</time>
      </trkpt>
      <trkpt lat="42.146380" lon="1.593030">
        <ele>914.831787</ele>
        <time>2008-05-24T13:19:36Z</time>
      </trkpt>
      <trkpt lat="42.146319" lon="1.592978">
        <ele>920.118896</ele>
        <time>2008-05-24T13:19:32Z</time>
      </trkpt>
      <trkpt lat="42.146278" lon="1.592875">
        <ele>933.577393</ele>
        <time>2008-05-24T13:19:28Z</time>
      </trkpt>
      <trkpt lat="42.146146" lon="1.592834">
        <ele>939.345215</ele>
        <time>2008-05-24T13:19:24Z</time>
      </trkpt>
      <trkpt lat="42.146043" lon="1.592685">
        <ele>944.152100</ele>
        <time>2008-05-24T13:19:20Z</time>
      </trkpt>
      <trkpt lat="42.146085" lon="1.592404">
        <ele>948.958496</ele>
        <time>2008-05-24T13:19:15Z</time>
      </trkpt>
      <trkpt lat="42.146181" lon="1.592232">
        <ele>950.881104</ele>
        <time>2008-05-24T13:19:12Z</time>
      </trkpt>
      <trkpt lat="42.146432" lon="1.592123">
        <ele>943.671387</ele>
        <time>2008-05-24T13:19:08Z</time>
      </trkpt>
      <trkpt lat="42.146587" lon="1.592115">
        <ele>935.500000</ele>
        <time>2008-05-24T13:19:05Z</time>
      </trkpt>
      <trkpt lat="42.146830" lon="1.591972">
        <ele>934.058105</ele>
        <time>2008-05-24T13:19:01Z</time>
      </trkpt>
      <trkpt lat="42.146959" lon="1.591913">
        <ele>934.058105</ele>
        <time>2008-05-24T13:18:59Z</time>
      </trkpt>
      <trkpt lat="42.147130" lon="1.591981">
        <ele>938.384033</ele>
        <time>2008-05-24T13:18:54Z</time>
      </trkpt>
      <trkpt lat="42.147191" lon="1.592025">
        <ele>936.461426</ele>
        <time>2008-05-24T13:18:52Z</time>
      </trkpt>
      <trkpt lat="42.147245" lon="1.592208">
        <ele>942.229492</ele>
        <time>2008-05-24T13:18:48Z</time>
      </trkpt>
      <trkpt lat="42.147241" lon="1.592300">
        <ele>943.190674</ele>
        <time>2008-05-24T13:18:43Z</time>
      </trkpt>
      <trkpt lat="42.147248" lon="1.592287">
        <ele>942.710205</ele>
        <time>2008-05-24T13:18:42Z</time>
      </trkpt>
      <trkpt lat="42.147275" lon="1.592161">
        <ele>952.803711</ele>
        <time>2008-05-24T13:18:36Z</time>
      </trkpt>
      <trkpt lat="42.147231" lon="1.592090">
        <ele>966.262207</ele>
        <time>2008-05-24T13:18:33Z</time>
      </trkpt>
      <trkpt lat="42.147136" lon="1.592043">
        <ele>979.720703</ele>
        <time>2008-05-24T13:18:31Z</time>
      </trkpt>
      <trkpt lat="42.146853" lon="1.591901">
        <ele>1014.808838</ele>
        <time>2008-05-24T13:18:27Z</time>
      </trkpt>
      <trkpt lat="42.146706" lon="1.591690">
        <ele>1024.902832</ele>
        <time>2008-05-24T13:18:23Z</time>
      </trkpt>
      <trkpt lat="42.146524" lon="1.591496">
        <ele>1034.515869</ele>
        <time>2008-05-24T13:18:18Z</time>
      </trkpt>
      <trkpt lat="42.146369" lon="1.591211">
        <ele>1039.803223</ele>
        <time>2008-05-24T13:18:13Z</time>
      </trkpt>
      <trkpt lat="42.146247" lon="1.590987">
        <ele>1039.803223</ele>
        <time>2008-05-24T13:18:09Z</time>
      </trkpt>
      <trkpt lat="42.146274" lon="1.590761">
        <ele>1035.957764</ele>
        <time>2008-05-24T13:18:04Z</time>
      </trkpt>
      <trkpt lat="42.146332" lon="1.590395">
        <ele>1036.919189</ele>
        <time>2008-05-24T13:17:58Z</time>
      </trkpt>
      <trkpt lat="42.146413" lon="1.590037">
        <ele>1040.764404</ele>
        <time>2008-05-24T13:17:53Z</time>
      </trkpt>
      <trkpt lat="42.146540" lon="1.589851">
        <ele>1037.880615</ele>
        <time>2008-05-24T13:17:48Z</time>
      </trkpt>
      <trkpt lat="42.146673" lon="1.589695">
        <ele>1041.245117</ele>
        <time>2008-05-24T13:17:43Z</time>
      </trkpt>
      <trkpt lat="42.146806" lon="1.589511">
        <ele>1031.151367</ele>
        <time>2008-05-24T13:17:37Z</time>
      </trkpt>
      <trkpt lat="42.146941" lon="1.589332">
        <ele>1018.173340</ele>
        <time>2008-05-24T13:17:31Z</time>
      </trkpt>
      <trkpt lat="42.147121" lon="1.589173">
        <ele>1006.156982</ele>
        <time>2008-05-24T13:17:25Z</time>
      </trkpt>
      <trkpt lat="42.147129" lon="1.589158">
        <ele>1007.599121</ele>
        <time>2008-05-24T13:17:24Z</time>
      </trkpt>
      <trkpt lat="42.147203" lon="1.589026">
        <ele>1001.831055</ele>
        <time>2008-05-24T13:17:19Z</time>
      </trkpt>
      <trkpt lat="42.147196" lon="1.589014">
        <ele>1003.272949</ele>
        <time>2008-05-24T13:17:18Z</time>
      </trkpt>
      <trkpt lat="42.147191" lon="1.588924">
        <ele>1002.792236</ele>
        <time>2008-05-24T13:17:14Z</time>
      </trkpt>
      <trkpt lat="42.147205" lon="1.588801">
        <ele>997.985840</ele>
        <time>2008-05-24T13:17:09Z</time>
      </trkpt>
      <trkpt lat="42.147192" lon="1.588704">
        <ele>1004.715088</ele>
        <time>2008-05-24T13:17:06Z</time>
      </trkpt>
      <trkpt lat="42.147224" lon="1.588504">
        <ele>1003.753662</ele>
        <time>2008-05-24T13:17:00Z</time>
      </trkpt>
      <trkpt lat="42.147275" lon="1.588262">
        <ele>998.947021</ele>
        <time>2008-05-24T13:16:55Z</time>
      </trkpt>
      <trkpt lat="42.147345" lon="1.588098">
        <ele>994.140625</ele>
        <time>2008-05-24T13:16:51Z</time>
      </trkpt>
      <trkpt lat="42.147429" lon="1.587921">
        <ele>986.449951</ele>
        <time>2008-05-24T13:16:45Z</time>
      </trkpt>
      <trkpt lat="42.147533" lon="1.587704">
        <ele>985.488525</ele>
        <time>2008-05-24T13:16:35Z</time>
      </trkpt>
      <trkpt lat="42.147635" lon="1.587887">
        <ele>1004.715088</ele>
        <time>2008-05-24T13:16:28Z</time>
      </trkpt>
      <trkpt lat="42.147745" lon="1.587841">
        <ele>1011.925049</ele>
        <time>2008-05-24T13:16:24Z</time>
      </trkpt>
      <trkpt lat="42.148048" lon="1.587609">
        <ele>1010.002197</ele>
        <time>2008-05-24T13:16:18Z</time>
      </trkpt>
      <trkpt lat="42.148209" lon="1.587509">
        <ele>1010.482910</ele>
        <time>2008-05-24T13:16:15Z</time>
      </trkpt>
      <trkpt lat="42.148420" lon="1.587395">
        <ele>1012.405518</ele>
        <time>2008-05-24T13:16:10Z</time>
      </trkpt>
      <trkpt lat="42.148469" lon="1.587440">
        <ele>1010.963623</ele>
        <time>2008-05-24T13:16:07Z</time>
      </trkpt>
      <trkpt lat="42.148411" lon="1.587742">
        <ele>1013.847412</ele>
        <time>2008-05-24T13:16:02Z</time>
      </trkpt>
      <trkpt lat="42.148306" lon="1.588018">
        <ele>1014.808838</ele>
        <time>2008-05-24T13:15:56Z</time>
      </trkpt>
      <trkpt lat="42.148226" lon="1.588256">
        <ele>1019.615479</ele>
        <time>2008-05-24T13:15:51Z</time>
      </trkpt>
      <trkpt lat="42.148089" lon="1.588508">
        <ele>1028.267334</ele>
        <time>2008-05-24T13:15:45Z</time>
      </trkpt>
      <trkpt lat="42.148078" lon="1.588729">
        <ele>1030.670654</ele>
        <time>2008-05-24T13:15:40Z</time>
      </trkpt>
      <trkpt lat="42.148061" lon="1.589152">
        <ele>1028.748047</ele>
        <time>2008-05-24T13:15:33Z</time>
      </trkpt>
      <trkpt lat="42.148091" lon="1.589258">
        <ele>1024.902832</ele>
        <time>2008-05-24T13:15:29Z</time>
      </trkpt>
      <trkpt lat="42.148082" lon="1.589383">
        <ele>1023.460938</ele>
        <time>2008-05-24T13:15:24Z</time>
      </trkpt>
      <trkpt lat="42.148193" lon="1.589282">
        <ele>1019.134766</ele>
        <time>2008-05-24T13:15:19Z</time>
      </trkpt>
      <trkpt lat="42.148257" lon="1.589136">
        <ele>1011.925049</ele>
        <time>2008-05-24T13:15:15Z</time>
      </trkpt>
      <trkpt lat="42.148380" lon="1.588835">
        <ele>1010.482910</ele>
        <time>2008-05-24T13:15:09Z</time>
      </trkpt>
      <trkpt lat="42.148421" lon="1.588687">
        <ele>1008.079834</ele>
        <time>2008-05-24T13:15:07Z</time>
      </trkpt>
      <trkpt lat="42.148552" lon="1.588488">
        <ele>1014.328125</ele>
        <time>2008-05-24T13:15:02Z</time>
      </trkpt>
      <trkpt lat="42.148577" lon="1.588481">
        <ele>1015.770264</ele>
        <time>2008-05-24T13:15:01Z</time>
      </trkpt>
      <trkpt lat="42.148699" lon="1.588674">
        <ele>1021.538086</ele>
        <time>2008-05-24T13:14:55Z</time>
      </trkpt>
      <trkpt lat="42.148864" lon="1.588978">
        <ele>1029.709229</ele>
        <time>2008-05-24T13:14:49Z</time>
      </trkpt>
      <trkpt lat="42.149151" lon="1.589366">
        <ele>1036.438721</ele>
        <time>2008-05-24T13:14:41Z</time>
      </trkpt>
      <trkpt lat="42.149259" lon="1.589441">
        <ele>1038.361328</ele>
        <time>2008-05-24T13:14:37Z</time>
      </trkpt>
      <trkpt lat="42.149283" lon="1.589435">
        <ele>1038.842041</ele>
        <time>2008-05-24T13:14:36Z</time>
      </trkpt>
      <trkpt lat="42.149405" lon="1.589370">
        <ele>1049.416260</ele>
        <time>2008-05-24T13:14:31Z</time>
      </trkpt>
      <trkpt lat="42.149501" lon="1.589254">
        <ele>1061.913574</ele>
        <time>2008-05-24T13:14:26Z</time>
      </trkpt>
      <trkpt lat="42.149552" lon="1.589146">
        <ele>1072.488037</ele>
        <time>2008-05-24T13:14:21Z</time>
      </trkpt>
      <trkpt lat="42.149626" lon="1.589071">
        <ele>1084.504639</ele>
        <time>2008-05-24T13:14:16Z</time>
      </trkpt>
      <trkpt lat="42.149803" lon="1.588865">
        <ele>1089.791748</ele>
        <time>2008-05-24T13:14:10Z</time>
      </trkpt>
      <trkpt lat="42.150014" lon="1.588596">
        <ele>1084.023926</ele>
        <time>2008-05-24T13:14:05Z</time>
      </trkpt>
      <trkpt lat="42.150153" lon="1.588208">
        <ele>1074.410645</ele>
        <time>2008-05-24T13:13:59Z</time>
      </trkpt>
      <trkpt lat="42.150155" lon="1.588050">
        <ele>1077.775146</ele>
        <time>2008-05-24T13:13:55Z</time>
      </trkpt>
      <trkpt lat="42.150118" lon="1.587687">
        <ele>1080.178467</ele>
        <time>2008-05-24T13:13:49Z</time>
      </trkpt>
      <trkpt lat="42.150127" lon="1.587480">
        <ele>1078.736572</ele>
        <time>2008-05-24T13:13:46Z</time>
      </trkpt>
      <trkpt lat="42.150098" lon="1.587301">
        <ele>1078.255859</ele>
        <time>2008-05-24T13:13:43Z</time>
      </trkpt>
      <trkpt lat="42.150088" lon="1.587076">
        <ele>1072.007324</ele>
        <time>2008-05-24T13:13:39Z</time>
      </trkpt>
      <trkpt lat="42.150139" lon="1.586831">
        <ele>1079.217041</ele>
        <time>2008-05-24T13:13:34Z</time>
      </trkpt>
      <trkpt lat="42.150227" lon="1.586463">
        <ele>1080.178467</ele>
        <time>2008-05-24T13:13:28Z</time>
      </trkpt>
      <trkpt lat="42.150308" lon="1.586219">
        <ele>1081.620361</ele>
        <time>2008-05-24T13:13:24Z</time>
      </trkpt>
      <trkpt lat="42.150506" lon="1.586156">
        <ele>1091.714355</ele>
        <time>2008-05-24T13:13:19Z</time>
      </trkpt>
      <trkpt lat="42.150599" lon="1.586109">
        <ele>1094.117676</ele>
        <time>2008-05-24T13:13:14Z</time>
      </trkpt>
      <trkpt lat="42.150610" lon="1.586182">
        <ele>1096.040283</ele>
        <time>2008-05-24T13:13:11Z</time>
      </trkpt>
      <trkpt lat="42.150624" lon="1.586418">
        <ele>1095.078857</ele>
        <time>2008-05-24T13:13:05Z</time>
      </trkpt>
      <trkpt lat="42.150776" lon="1.586519">
        <ele>1097.001465</ele>
        <time>2008-05-24T13:13:00Z</time>
      </trkpt>
      <trkpt lat="42.150897" lon="1.586632">
        <ele>1099.885498</ele>
        <time>2008-05-24T13:12:54Z</time>
      </trkpt>
      <trkpt lat="42.150913" lon="1.586624">
        <ele>1092.675781</ele>
        <time>2008-05-24T13:12:42Z</time>
      </trkpt>
      <trkpt lat="42.150933" lon="1.586602">
        <ele>1092.195068</ele>
        <time>2008-05-24T13:12:34Z</time>
      </trkpt>
      <trkpt lat="42.150940" lon="1.586584">
        <ele>1092.675781</ele>
        <time>2008-05-24T13:12:30Z</time>
      </trkpt>
      <trkpt lat="42.150928" lon="1.586584">
        <ele>1093.156250</ele>
        <time>2008-05-24T13:12:15Z</time>
      </trkpt>
      <trkpt lat="42.150924" lon="1.586583">
        <ele>1092.675781</ele>
        <time>2008-05-24T13:11:51Z</time>
      </trkpt>
      <trkpt lat="42.150910" lon="1.586564">
        <ele>1092.195068</ele>
        <time>2008-05-24T13:11:27Z</time>
      </trkpt>
      <trkpt lat="42.150930" lon="1.586459">
        <ele>1096.040283</ele>
        <time>2008-05-24T13:11:22Z</time>
      </trkpt>
      <trkpt lat="42.150887" lon="1.586368">
        <ele>1097.001465</ele>
        <time>2008-05-24T13:11:18Z</time>
      </trkpt>
      <trkpt lat="42.150850" lon="1.586225">
        <ele>1095.559570</ele>
        <time>2008-05-24T13:11:10Z</time>
      </trkpt>
      <trkpt lat="42.150854" lon="1.586214">
        <ele>1095.559570</ele>
        <time>2008-05-24T13:11:09Z</time>
      </trkpt>
      <trkpt lat="42.150919" lon="1.586021">
        <ele>1096.040283</ele>
        <time>2008-05-24T13:11:00Z</time>
      </trkpt>
      <trkpt lat="42.150915" lon="1.585854">
        <ele>1102.769531</ele>
        <time>2008-05-24T13:10:52Z</time>
      </trkpt>
      <trkpt lat="42.150845" lon="1.585822">
        <ele>1109.498779</ele>
        <time>2008-05-24T13:10:41Z</time>
      </trkpt>
      <trkpt lat="42.150785" lon="1.585767">
        <ele>1106.614746</ele>
        <time>2008-05-24T13:10:33Z</time>
      </trkpt>
      <trkpt lat="42.150733" lon="1.585705">
        <ele>1106.134033</ele>
        <time>2008-05-24T13:10:24Z</time>
      </trkpt>
      <trkpt lat="42.150698" lon="1.585613">
        <ele>1104.692139</ele>
        <time>2008-05-24T13:10:14Z</time>
      </trkpt>
      <trkpt lat="42.150649" lon="1.585499">
        <ele>1109.979248</ele>
        <time>2008-05-24T13:10:05Z</time>
      </trkpt>
      <trkpt lat="42.150620" lon="1.585437">
        <ele>1111.902100</ele>
        <time>2008-05-24T13:09:58Z</time>
      </trkpt>
      <trkpt lat="42.150589" lon="1.585329">
        <ele>1111.902100</ele>
        <time>2008-05-24T13:09:49Z</time>
      </trkpt>
      <trkpt lat="42.150540" lon="1.585198">
        <ele>1109.018066</ele>
        <time>2008-05-24T13:09:38Z</time>
      </trkpt>
      <trkpt lat="42.150521" lon="1.585130">
        <ele>1104.211670</ele>
        <time>2008-05-24T13:09:31Z</time>
      </trkpt>
      <trkpt lat="42.150529" lon="1.585073">
        <ele>1098.924072</ele>
        <time>2008-05-24T13:09:24Z</time>
      </trkpt>
      <trkpt lat="42.150534" lon="1.585002">
        <ele>1095.078857</ele>
        <time>2008-05-24T13:09:16Z</time>
      </trkpt>
      <trkpt lat="42.150402" lon="1.584943">
        <ele>1118.631348</ele>
        <time>2008-05-24T13:08:07Z</time>
      </trkpt>
      <trkpt lat="42.150366" lon="1.584844">
        <ele>1120.073242</ele>
        <time>2008-05-24T13:08:00Z</time>
      </trkpt>
      <trkpt lat="42.150353" lon="1.584813">
        <ele>1118.631348</ele>
        <time>2008-05-24T13:07:58Z</time>
      </trkpt>
      <trkpt lat="42.150301" lon="1.584696">
        <ele>1120.073242</ele>
        <time>2008-05-24T13:07:51Z</time>
      </trkpt>
      <trkpt lat="42.150245" lon="1.584607">
        <ele>1117.189453</ele>
        <time>2008-05-24T13:07:44Z</time>
      </trkpt>
      <trkpt lat="42.150208" lon="1.584541">
        <ele>1116.228027</ele>
        <time>2008-05-24T13:07:39Z</time>
      </trkpt>
      <trkpt lat="42.150182" lon="1.584432">
        <ele>1109.979248</ele>
        <time>2008-05-24T13:07:31Z</time>
      </trkpt>
      <trkpt lat="42.150166" lon="1.584291">
        <ele>1106.614746</ele>
        <time>2008-05-24T13:07:23Z</time>
      </trkpt>
      <trkpt lat="42.150148" lon="1.584134">
        <ele>1104.692139</ele>
        <time>2008-05-24T13:07:14Z</time>
      </trkpt>
      <trkpt lat="42.150161" lon="1.584034">
        <ele>1104.211670</ele>
        <time>2008-05-24T13:07:09Z</time>
      </trkpt>
      <trkpt lat="42.150197" lon="1.583938">
        <ele>1103.250244</ele>
        <time>2008-05-24T13:07:04Z</time>
      </trkpt>
      <trkpt lat="42.150270" lon="1.583847">
        <ele>1098.443359</ele>
        <time>2008-05-24T13:06:59Z</time>
      </trkpt>
      <trkpt lat="42.150351" lon="1.583678">
        <ele>1098.924072</ele>
        <time>2008-05-24T13:06:52Z</time>
      </trkpt>
      <trkpt lat="42.150356" lon="1.583651">
        <ele>1100.846924</ele>
        <time>2008-05-24T13:06:51Z</time>
      </trkpt>
      <trkpt lat="42.150376" lon="1.583518">
        <ele>1109.018066</ele>
        <time>2008-05-24T13:06:45Z</time>
      </trkpt>
      <trkpt lat="42.150378" lon="1.583337">
        <ele>1110.459961</ele>
        <time>2008-05-24T13:06:39Z</time>
      </trkpt>
      <trkpt lat="42.150436" lon="1.583173">
        <ele>1109.979248</ele>
        <time>2008-05-24T13:06:34Z</time>
      </trkpt>
      <trkpt lat="42.150425" lon="1.582892">
        <ele>1108.056885</ele>
        <time>2008-05-24T13:06:08Z</time>
      </trkpt>
      <trkpt lat="42.150426" lon="1.582851">
        <ele>1105.172852</ele>
        <time>2008-05-24T13:05:35Z</time>
      </trkpt>
      <trkpt lat="42.150386" lon="1.582801">
        <ele>1106.134033</ele>
        <time>2008-05-24T13:05:29Z</time>
      </trkpt>
      <trkpt lat="42.150350" lon="1.582841">
        <ele>1101.808350</ele>
        <time>2008-05-24T13:05:14Z</time>
      </trkpt>
      <trkpt lat="42.150326" lon="1.582804">
        <ele>1095.559570</ele>
        <time>2008-05-24T13:05:07Z</time>
      </trkpt>
      <trkpt lat="42.150288" lon="1.582831">
        <ele>1097.962891</ele>
        <time>2008-05-24T13:04:58Z</time>
      </trkpt>
      <trkpt lat="42.150244" lon="1.582887">
        <ele>1102.288818</ele>
        <time>2008-05-24T13:04:51Z</time>
      </trkpt>
      <trkpt lat="42.150191" lon="1.582926">
        <ele>1096.040283</ele>
        <time>2008-05-24T13:04:44Z</time>
      </trkpt>
      <trkpt lat="42.150148" lon="1.582959">
        <ele>1095.559570</ele>
        <time>2008-05-24T13:04:39Z</time>
      </trkpt>
      <trkpt lat="42.150063" lon="1.582974">
        <ele>1096.040283</ele>
        <time>2008-05-24T13:04:25Z</time>
      </trkpt>
      <trkpt lat="42.150034" lon="1.582952">
        <ele>1097.001465</ele>
        <time>2008-05-24T13:04:18Z</time>
      </trkpt>
      <trkpt lat="42.150009" lon="1.582934">
        <ele>1097.001465</ele>
        <time>2008-05-24T13:04:11Z</time>
      </trkpt>
      <trkpt lat="42.149873" lon="1.582870">
        <ele>1091.233643</ele>
        <time>2008-05-24T13:03:42Z</time>
      </trkpt>
      <trkpt lat="42.149777" lon="1.582887">
        <ele>1093.156250</ele>
        <time>2008-05-24T13:03:22Z</time>
      </trkpt>
      <trkpt lat="42.149757" lon="1.582877">
        <ele>1089.791748</ele>
        <time>2008-05-24T13:03:12Z</time>
      </trkpt>
      <trkpt lat="42.149618" lon="1.582814">
        <ele>1096.040283</ele>
        <time>2008-05-24T13:02:47Z</time>
      </trkpt>
      <trkpt lat="42.149462" lon="1.582776">
        <ele>1098.924072</ele>
        <time>2008-05-24T13:02:27Z</time>
      </trkpt>
      <trkpt lat="42.149328" lon="1.582712">
        <ele>1110.940674</ele>
        <time>2008-05-24T13:02:20Z</time>
      </trkpt>
      <trkpt lat="42.149277" lon="1.582684">
        <ele>1109.018066</ele>
        <time>2008-05-24T13:02:16Z</time>
      </trkpt>
      <trkpt lat="42.149230" lon="1.582663">
        <ele>1105.172852</ele>
        <time>2008-05-24T13:02:13Z</time>
      </trkpt>
      <trkpt lat="42.149196" lon="1.582580">
        <ele>1107.095459</ele>
        <time>2008-05-24T13:02:09Z</time>
      </trkpt>
      <trkpt lat="42.149121" lon="1.582511">
        <ele>1099.404785</ele>
        <time>2008-05-24T13:02:02Z</time>
      </trkpt>
      <trkpt lat="42.149040" lon="1.582469">
        <ele>1090.752930</ele>
        <time>2008-05-24T13:01:47Z</time>
      </trkpt>
      <trkpt lat="42.149013" lon="1.582479">
        <ele>1093.156250</ele>
        <time>2008-05-24T13:01:41Z</time>
      </trkpt>
      <trkpt lat="42.148946" lon="1.582462">
        <ele>1110.459961</ele>
        <time>2008-05-24T13:01:21Z</time>
      </trkpt>
      <trkpt lat="42.148908" lon="1.582380">
        <ele>1113.343994</ele>
        <time>2008-05-24T13:01:15Z</time>
      </trkpt>
      <trkpt lat="42.148734" lon="1.582298">
        <ele>1093.636963</ele>
        <time>2008-05-24T13:00:41Z</time>
      </trkpt>
      <trkpt lat="42.148688" lon="1.582385">
        <ele>1094.117676</ele>
        <time>2008-05-24T13:00:30Z</time>
      </trkpt>
      <trkpt lat="42.148663" lon="1.582479">
        <ele>1100.846924</ele>
        <time>2008-05-24T13:00:16Z</time>
      </trkpt>
      <trkpt lat="42.148569" lon="1.582562">
        <ele>1098.924072</ele>
        <time>2008-05-24T13:00:04Z</time>
      </trkpt>
      <trkpt lat="42.148503" lon="1.582670">
        <ele>1098.443359</ele>
        <time>2008-05-24T12:59:59Z</time>
      </trkpt>
      <trkpt lat="42.148422" lon="1.582741">
        <ele>1100.366455</ele>
        <time>2008-05-24T12:59:56Z</time>
      </trkpt>
      <trkpt lat="42.148414" lon="1.582776">
        <ele>1107.095459</ele>
        <time>2008-05-24T12:59:52Z</time>
      </trkpt>
      <trkpt lat="42.148303" lon="1.582928">
        <ele>1108.537354</ele>
        <time>2008-05-24T12:59:36Z</time>
      </trkpt>
      <trkpt lat="42.148228" lon="1.582900">
        <ele>1100.846924</ele>
        <time>2008-05-24T12:59:29Z</time>
      </trkpt>
      <trkpt lat="42.148210" lon="1.582960">
        <ele>1103.250244</ele>
        <time>2008-05-24T12:59:15Z</time>
      </trkpt>
      <trkpt lat="42.148210" lon="1.582949">
        <ele>1099.885498</ele>
        <time>2008-05-24T12:59:08Z</time>
      </trkpt>
      <trkpt lat="42.148186" lon="1.582975">
        <ele>1098.443359</ele>
        <time>2008-05-24T12:59:00Z</time>
      </trkpt>
      <trkpt lat="42.147951" lon="1.583050">
        <ele>1084.023926</ele>
        <time>2008-05-24T12:58:35Z</time>
      </trkpt>
      <trkpt lat="42.147929" lon="1.583081">
        <ele>1083.062256</ele>
        <time>2008-05-24T12:58:30Z</time>
      </trkpt>
      <trkpt lat="42.147905" lon="1.583258">
        <ele>1091.233643</ele>
        <time>2008-05-24T12:58:22Z</time>
      </trkpt>
      <trkpt lat="42.147863" lon="1.583346">
        <ele>1096.520996</ele>
        <time>2008-05-24T12:58:18Z</time>
      </trkpt>
      <trkpt lat="42.147810" lon="1.583442">
        <ele>1103.250244</ele>
        <time>2008-05-24T12:58:13Z</time>
      </trkpt>
      <trkpt lat="42.147760" lon="1.583502">
        <ele>1103.250244</ele>
        <time>2008-05-24T12:58:07Z</time>
      </trkpt>
      <trkpt lat="42.147734" lon="1.583522">
        <ele>1101.327637</ele>
        <time>2008-05-24T12:58:04Z</time>
      </trkpt>
      <trkpt lat="42.147689" lon="1.583556">
        <ele>1097.482178</ele>
        <time>2008-05-24T12:57:57Z</time>
      </trkpt>
      <trkpt lat="42.147660" lon="1.583612">
        <ele>1093.156250</ele>
        <time>2008-05-24T12:57:49Z</time>
      </trkpt>
      <trkpt lat="42.147514" lon="1.583640">
        <ele>1095.078857</ele>
        <time>2008-05-24T12:57:25Z</time>
      </trkpt>
      <trkpt lat="42.147455" lon="1.583616">
        <ele>1096.040283</ele>
        <time>2008-05-24T12:57:20Z</time>
      </trkpt>
      <trkpt lat="42.147294" lon="1.583666">
        <ele>1099.404785</ele>
        <time>2008-05-24T12:57:13Z</time>
      </trkpt>
      <trkpt lat="42.147145" lon="1.583756">
        <ele>1101.808350</ele>
        <time>2008-05-24T12:57:07Z</time>
      </trkpt>
      <trkpt lat="42.147003" lon="1.583847">
        <ele>1104.692139</ele>
        <time>2008-05-24T12:57:00Z</time>
      </trkpt>
      <trkpt lat="42.146954" lon="1.583852">
        <ele>1102.769531</ele>
        <time>2008-05-24T12:56:57Z</time>
      </trkpt>
      <trkpt lat="42.146888" lon="1.583888">
        <ele>1103.250244</ele>
        <time>2008-05-24T12:56:52Z</time>
      </trkpt>
      <trkpt lat="42.146783" lon="1.583904">
        <ele>1107.095459</ele>
        <time>2008-05-24T12:56:45Z</time>
      </trkpt>
      <trkpt lat="42.146686" lon="1.583855">
        <ele>1115.266602</ele>
        <time>2008-05-24T12:56:39Z</time>
      </trkpt>
      <trkpt lat="42.146591" lon="1.583871">
        <ele>1112.382568</ele>
        <time>2008-05-24T12:56:31Z</time>
      </trkpt>
      <trkpt lat="42.146560" lon="1.583883">
        <ele>1110.940674</ele>
        <time>2008-05-24T12:56:29Z</time>
      </trkpt>
      <trkpt lat="42.146499" lon="1.583829">
        <ele>1098.443359</ele>
        <time>2008-05-24T12:56:21Z</time>
      </trkpt>
      <trkpt lat="42.146419" lon="1.583783">
        <ele>1115.266602</ele>
        <time>2008-05-24T12:55:54Z</time>
      </trkpt>
      <trkpt lat="42.146390" lon="1.583731">
        <ele>1118.631348</ele>
        <time>2008-05-24T12:55:45Z</time>
      </trkpt>
      <trkpt lat="42.146356" lon="1.583631">
        <ele>1118.631348</ele>
        <time>2008-05-24T12:55:38Z</time>
      </trkpt>
      <trkpt lat="42.146313" lon="1.583520">
        <ele>1117.669922</ele>
        <time>2008-05-24T12:55:32Z</time>
      </trkpt>
      <trkpt lat="42.146256" lon="1.583400">
        <ele>1116.228027</ele>
        <time>2008-05-24T12:55:25Z</time>
      </trkpt>
      <trkpt lat="42.146201" lon="1.583232">
        <ele>1121.034668</ele>
        <time>2008-05-24T12:55:17Z</time>
      </trkpt>
      <trkpt lat="42.146155" lon="1.583063">
        <ele>1123.437988</ele>
        <time>2008-05-24T12:55:12Z</time>
      </trkpt>
      <trkpt lat="42.146120" lon="1.582866">
        <ele>1123.918457</ele>
        <time>2008-05-24T12:55:05Z</time>
      </trkpt>
      <trkpt lat="42.146101" lon="1.582619">
        <ele>1121.034668</ele>
        <time>2008-05-24T12:54:55Z</time>
      </trkpt>
      <trkpt lat="42.146074" lon="1.582532">
        <ele>1119.112061</ele>
        <time>2008-05-24T12:54:51Z</time>
      </trkpt>
      <trkpt lat="42.146061" lon="1.582516">
        <ele>1118.631348</ele>
        <time>2008-05-24T12:54:50Z</time>
      </trkpt>
      <trkpt lat="42.145940" lon="1.582430">
        <ele>1117.669922</ele>
        <time>2008-05-24T12:54:43Z</time>
      </trkpt>
      <trkpt lat="42.145828" lon="1.582351">
        <ele>1121.034668</ele>
        <time>2008-05-24T12:54:37Z</time>
      </trkpt>
      <trkpt lat="42.145751" lon="1.582311">
        <ele>1118.150635</ele>
        <time>2008-05-24T12:54:30Z</time>
      </trkpt>
      <trkpt lat="42.145676" lon="1.582219">
        <ele>1113.343994</ele>
        <time>2008-05-24T12:54:21Z</time>
      </trkpt>
      <trkpt lat="42.145591" lon="1.582161">
        <ele>1107.095459</ele>
        <time>2008-05-24T12:54:13Z</time>
      </trkpt>
      <trkpt lat="42.145538" lon="1.582124">
        <ele>1100.846924</ele>
        <time>2008-05-24T12:54:06Z</time>
      </trkpt>
      <trkpt lat="42.145523" lon="1.582110">
        <ele>1099.404785</ele>
        <time>2008-05-24T12:54:04Z</time>
      </trkpt>
      <trkpt lat="42.145496" lon="1.582076">
        <ele>1097.001465</ele>
        <time>2008-05-24T12:53:55Z</time>
      </trkpt>
      <trkpt lat="42.145462" lon="1.581981">
        <ele>1108.537354</ele>
        <time>2008-05-24T12:53:41Z</time>
      </trkpt>
      <trkpt lat="42.145419" lon="1.581903">
        <ele>1116.708740</ele>
        <time>2008-05-24T12:53:30Z</time>
      </trkpt>
      <trkpt lat="42.145375" lon="1.581727">
        <ele>1117.669922</ele>
        <time>2008-05-24T12:53:23Z</time>
      </trkpt>
      <trkpt lat="42.145344" lon="1.581653">
        <ele>1122.476563</ele>
        <time>2008-05-24T12:53:20Z</time>
      </trkpt>
      <trkpt lat="42.145293" lon="1.581544">
        <ele>1119.112061</ele>
        <time>2008-05-24T12:53:14Z</time>
      </trkpt>
      <trkpt lat="42.145223" lon="1.581448">
        <ele>1117.189453</ele>
        <time>2008-05-24T12:53:07Z</time>
      </trkpt>
      <trkpt lat="42.145142" lon="1.581335">
        <ele>1122.476563</ele>
        <time>2008-05-24T12:53:01Z</time>
      </trkpt>
      <trkpt lat="42.145041" lon="1.581207">
        <ele>1124.879883</ele>
        <time>2008-05-24T12:52:55Z</time>
      </trkpt>
      <trkpt lat="42.144978" lon="1.581087">
        <ele>1124.879883</ele>
        <time>2008-05-24T12:52:49Z</time>
      </trkpt>
      <trkpt lat="42.144880" lon="1.580946">
        <ele>1125.841064</ele>
        <time>2008-05-24T12:52:42Z</time>
      </trkpt>
      <trkpt lat="42.144863" lon="1.580932">
        <ele>1125.841064</ele>
        <time>2008-05-24T12:52:41Z</time>
      </trkpt>
      <trkpt lat="42.144740" lon="1.580812">
        <ele>1123.918457</ele>
        <time>2008-05-24T12:52:32Z</time>
      </trkpt>
      <trkpt lat="42.144690" lon="1.580747">
        <ele>1121.515137</ele>
        <time>2008-05-24T12:52:28Z</time>
      </trkpt>
      <trkpt lat="42.144671" lon="1.580743">
        <ele>1119.112061</ele>
        <time>2008-05-24T12:52:26Z</time>
      </trkpt>
      <trkpt lat="42.144656" lon="1.580702">
        <ele>1115.266602</ele>
        <time>2008-05-24T12:52:22Z</time>
      </trkpt>
      <trkpt lat="42.144648" lon="1.580638">
        <ele>1109.498779</ele>
        <time>2008-05-24T12:52:16Z</time>
      </trkpt>
      <trkpt lat="42.144664" lon="1.580616">
        <ele>1109.018066</ele>
        <time>2008-05-24T12:51:59Z</time>
      </trkpt>
      <trkpt lat="42.144662" lon="1.580609">
        <ele>1109.979248</ele>
        <time>2008-05-24T12:51:53Z</time>
      </trkpt>
      <trkpt lat="42.144578" lon="1.580459">
        <ele>1122.476563</ele>
        <time>2008-05-24T12:51:21Z</time>
      </trkpt>
      <trkpt lat="42.144547" lon="1.580367">
        <ele>1121.515137</ele>
        <time>2008-05-24T12:51:14Z</time>
      </trkpt>
      <trkpt lat="42.144527" lon="1.580286">
        <ele>1118.150635</ele>
        <time>2008-05-24T12:51:09Z</time>
      </trkpt>
      <trkpt lat="42.144469" lon="1.580185">
        <ele>1118.150635</ele>
        <time>2008-05-24T12:51:03Z</time>
      </trkpt>
      <trkpt lat="42.144454" lon="1.580068">
        <ele>1119.112061</ele>
        <time>2008-05-24T12:50:57Z</time>
      </trkpt>
      <trkpt lat="42.144433" lon="1.580014">
        <ele>1116.228027</ele>
        <time>2008-05-24T12:50:54Z</time>
      </trkpt>
      <trkpt lat="42.144360" lon="1.579874">
        <ele>1120.553955</ele>
        <time>2008-05-24T12:50:46Z</time>
      </trkpt>
      <trkpt lat="42.144303" lon="1.579742">
        <ele>1119.592773</ele>
        <time>2008-05-24T12:50:40Z</time>
      </trkpt>
      <trkpt lat="42.144277" lon="1.579611">
        <ele>1118.631348</ele>
        <time>2008-05-24T12:50:34Z</time>
      </trkpt>
      <trkpt lat="42.144265" lon="1.579538">
        <ele>1115.266602</ele>
        <time>2008-05-24T12:50:29Z</time>
      </trkpt>
      <trkpt lat="42.144223" lon="1.579451">
        <ele>1110.459961</ele>
        <time>2008-05-24T12:50:22Z</time>
      </trkpt>
      <trkpt lat="42.144205" lon="1.579383">
        <ele>1107.576172</ele>
        <time>2008-05-24T12:50:16Z</time>
      </trkpt>
      <trkpt lat="42.144181" lon="1.579358">
        <ele>1105.653564</ele>
        <time>2008-05-24T12:50:11Z</time>
      </trkpt>
      <trkpt lat="42.144161" lon="1.579294">
        <ele>1110.459961</ele>
        <time>2008-05-24T12:50:04Z</time>
      </trkpt>
      <trkpt lat="42.144155" lon="1.579228">
        <ele>1108.537354</ele>
        <time>2008-05-24T12:49:57Z</time>
      </trkpt>
      <trkpt lat="42.144125" lon="1.579146">
        <ele>1114.785889</ele>
        <time>2008-05-24T12:49:46Z</time>
      </trkpt>
      <trkpt lat="42.144146" lon="1.579060">
        <ele>1112.382568</ele>
        <time>2008-05-24T12:49:41Z</time>
      </trkpt>
      <trkpt lat="42.144155" lon="1.578947">
        <ele>1103.730957</ele>
        <time>2008-05-24T12:49:33Z</time>
      </trkpt>
      <trkpt lat="42.144131" lon="1.578917">
        <ele>1102.288818</ele>
        <time>2008-05-24T12:49:28Z</time>
      </trkpt>
      <trkpt lat="42.144086" lon="1.578830">
        <ele>1094.117676</ele>
        <time>2008-05-24T12:49:16Z</time>
      </trkpt>
      <trkpt lat="42.144022" lon="1.578665">
        <ele>1092.675781</ele>
        <time>2008-05-24T12:48:49Z</time>
      </trkpt>
      <trkpt lat="42.144002" lon="1.578629">
        <ele>1093.156250</ele>
        <time>2008-05-24T12:48:41Z</time>
      </trkpt>
      <trkpt lat="42.143984" lon="1.578580">
        <ele>1094.598145</ele>
        <time>2008-05-24T12:48:35Z</time>
      </trkpt>
      <trkpt lat="42.143970" lon="1.578535">
        <ele>1094.117676</ele>
        <time>2008-05-24T12:48:32Z</time>
      </trkpt>
      <trkpt lat="42.143964" lon="1.578378">
        <ele>1095.078857</ele>
        <time>2008-05-24T12:48:25Z</time>
      </trkpt>
      <trkpt lat="42.143966" lon="1.578298">
        <ele>1095.078857</ele>
        <time>2008-05-24T12:48:20Z</time>
      </trkpt>
      <trkpt lat="42.143966" lon="1.578234">
        <ele>1094.117676</ele>
        <time>2008-05-24T12:48:16Z</time>
      </trkpt>
      <trkpt lat="42.143954" lon="1.578110">
        <ele>1096.040283</ele>
        <time>2008-05-24T12:48:05Z</time>
      </trkpt>
      <trkpt lat="42.143949" lon="1.577999">
        <ele>1093.636963</ele>
        <time>2008-05-24T12:47:58Z</time>
      </trkpt>
      <trkpt lat="42.143948" lon="1.577930">
        <ele>1093.636963</ele>
        <time>2008-05-24T12:47:53Z</time>
      </trkpt>
      <trkpt lat="42.143961" lon="1.577765">
        <ele>1090.272461</ele>
        <time>2008-05-24T12:47:44Z</time>
      </trkpt>
      <trkpt lat="42.144045" lon="1.577646">
        <ele>1090.752930</ele>
        <time>2008-05-24T12:47:36Z</time>
      </trkpt>
      <trkpt lat="42.144072" lon="1.577612">
        <ele>1087.869141</ele>
        <time>2008-05-24T12:47:33Z</time>
      </trkpt>
      <trkpt lat="42.144077" lon="1.577601">
        <ele>1087.388428</ele>
        <time>2008-05-24T12:47:32Z</time>
      </trkpt>
      <trkpt lat="42.144107" lon="1.577510">
        <ele>1083.542969</ele>
        <time>2008-05-24T12:47:24Z</time>
      </trkpt>
      <trkpt lat="42.144075" lon="1.577452">
        <ele>1083.062256</ele>
        <time>2008-05-24T12:47:15Z</time>
      </trkpt>
      <trkpt lat="42.144052" lon="1.577417">
        <ele>1087.388428</ele>
        <time>2008-05-24T12:47:11Z</time>
      </trkpt>
      <trkpt lat="42.144068" lon="1.577300">
        <ele>1076.333252</ele>
        <time>2008-05-24T12:46:55Z</time>
      </trkpt>
      <trkpt lat="42.144069" lon="1.577264">
        <ele>1072.968750</ele>
        <time>2008-05-24T12:46:48Z</time>
      </trkpt>
      <trkpt lat="42.144079" lon="1.577207">
        <ele>1072.007324</ele>
        <time>2008-05-24T12:46:41Z</time>
      </trkpt>
      <trkpt lat="42.144073" lon="1.577151">
        <ele>1079.697754</ele>
        <time>2008-05-24T12:46:36Z</time>
      </trkpt>
      <trkpt lat="42.144086" lon="1.577101">
        <ele>1079.217041</ele>
        <time>2008-05-24T12:46:29Z</time>
      </trkpt>
      <trkpt lat="42.144096" lon="1.577027">
        <ele>1080.178467</ele>
        <time>2008-05-24T12:46:21Z</time>
      </trkpt>
      <trkpt lat="42.144102" lon="1.576991">
        <ele>1078.255859</ele>
        <time>2008-05-24T12:46:15Z</time>
      </trkpt>
      <trkpt lat="42.144116" lon="1.576937">
        <ele>1074.410645</ele>
        <time>2008-05-24T12:46:10Z</time>
      </trkpt>
      <trkpt lat="42.144127" lon="1.576882">
        <ele>1073.449463</ele>
        <time>2008-05-24T12:46:03Z</time>
      </trkpt>
      <trkpt lat="42.144154" lon="1.576810">
        <ele>1072.488037</ele>
        <time>2008-05-24T12:45:56Z</time>
      </trkpt>
      <trkpt lat="42.144181" lon="1.576795">
        <ele>1066.239258</ele>
        <time>2008-05-24T12:45:49Z</time>
      </trkpt>
      <trkpt lat="42.144169" lon="1.576761">
        <ele>1069.123535</ele>
        <time>2008-05-24T12:45:41Z</time>
      </trkpt>
      <trkpt lat="42.144184" lon="1.576755">
        <ele>1062.874756</ele>
        <time>2008-05-24T12:45:33Z</time>
      </trkpt>
      <trkpt lat="42.144201" lon="1.576695">
        <ele>1076.333252</ele>
        <time>2008-05-24T12:45:14Z</time>
      </trkpt>
      <trkpt lat="42.144217" lon="1.576668">
        <ele>1082.101074</ele>
        <time>2008-05-24T12:45:07Z</time>
      </trkpt>
      <trkpt lat="42.144262" lon="1.576558">
        <ele>1064.797363</ele>
        <time>2008-05-24T12:44:27Z</time>
      </trkpt>
      <trkpt lat="42.144263" lon="1.576462">
        <ele>1078.255859</ele>
        <time>2008-05-24T12:44:07Z</time>
      </trkpt>
      <trkpt lat="42.144273" lon="1.576440">
        <ele>1084.023926</ele>
        <time>2008-05-24T12:43:54Z</time>
      </trkpt>
      <trkpt lat="42.144274" lon="1.576314">
        <ele>1080.178467</ele>
        <time>2008-05-24T12:43:45Z</time>
      </trkpt>
      <trkpt lat="42.144249" lon="1.576291">
        <ele>1080.178467</ele>
        <time>2008-05-24T12:43:41Z</time>
      </trkpt>
      <trkpt lat="42.144128" lon="1.576186">
        <ele>1083.062256</ele>
        <time>2008-05-24T12:43:33Z</time>
      </trkpt>
      <trkpt lat="42.144079" lon="1.576088">
        <ele>1083.062256</ele>
        <time>2008-05-24T12:43:27Z</time>
      </trkpt>
      <trkpt lat="42.144039" lon="1.576082">
        <ele>1082.581787</ele>
        <time>2008-05-24T12:43:24Z</time>
      </trkpt>
      <trkpt lat="42.144010" lon="1.576076">
        <ele>1081.620361</ele>
        <time>2008-05-24T12:43:21Z</time>
      </trkpt>
      <trkpt lat="42.143965" lon="1.576095">
        <ele>1084.504639</ele>
        <time>2008-05-24T12:43:10Z</time>
      </trkpt>
      <trkpt lat="42.143839" lon="1.576114">
        <ele>1070.565430</ele>
        <time>2008-05-24T12:42:44Z</time>
      </trkpt>
      <trkpt lat="42.143810" lon="1.576137">
        <ele>1070.565430</ele>
        <time>2008-05-24T12:42:38Z</time>
      </trkpt>
      <trkpt lat="42.143785" lon="1.576186">
        <ele>1072.968750</ele>
        <time>2008-05-24T12:42:22Z</time>
      </trkpt>
      <trkpt lat="42.143763" lon="1.576289">
        <ele>1053.742432</ele>
        <time>2008-05-24T12:42:00Z</time>
      </trkpt>
      <trkpt lat="42.143753" lon="1.576328">
        <ele>1054.223145</ele>
        <time>2008-05-24T12:41:54Z</time>
      </trkpt>
      <trkpt lat="42.143678" lon="1.576461">
        <ele>1048.935547</ele>
        <time>2008-05-24T12:41:24Z</time>
      </trkpt>
      <trkpt lat="42.143617" lon="1.576539">
        <ele>1046.051758</ele>
        <time>2008-05-24T12:41:15Z</time>
      </trkpt>
      <trkpt lat="42.143613" lon="1.576509">
        <ele>1040.764404</ele>
        <time>2008-05-24T12:41:01Z</time>
      </trkpt>
      <trkpt lat="42.143609" lon="1.576537">
        <ele>1045.090332</ele>
        <time>2008-05-24T12:40:46Z</time>
      </trkpt>
      <trkpt lat="42.143572" lon="1.576539">
        <ele>1051.819580</ele>
        <time>2008-05-24T12:40:37Z</time>
      </trkpt>
      <trkpt lat="42.143531" lon="1.576585">
        <ele>1052.300293</ele>
        <time>2008-05-24T12:40:30Z</time>
      </trkpt>
      <trkpt lat="42.143568" lon="1.576558">
        <ele>1057.106934</ele>
        <time>2008-05-24T12:40:00Z</time>
      </trkpt>
      <trkpt lat="42.143530" lon="1.576585">
        <ele>1051.819580</ele>
        <time>2008-05-24T12:39:21Z</time>
      </trkpt>
      <trkpt lat="42.143513" lon="1.576589">
        <ele>1054.223145</ele>
        <time>2008-05-24T12:39:13Z</time>
      </trkpt>
      <trkpt lat="42.143470" lon="1.576599">
        <ele>1056.626221</ele>
        <time>2008-05-24T12:39:07Z</time>
      </trkpt>
      <trkpt lat="42.143477" lon="1.576658">
        <ele>1051.819580</ele>
        <time>2008-05-24T12:38:58Z</time>
      </trkpt>
      <trkpt lat="42.143481" lon="1.576691">
        <ele>1052.300293</ele>
        <time>2008-05-24T12:38:52Z</time>
      </trkpt>
      <trkpt lat="42.143478" lon="1.576723">
        <ele>1045.090332</ele>
        <time>2008-05-24T12:38:41Z</time>
      </trkpt>
      <trkpt lat="42.143451" lon="1.576797">
        <ele>1045.090332</ele>
        <time>2008-05-24T12:38:34Z</time>
      </trkpt>
      <trkpt lat="42.143418" lon="1.576821">
        <ele>1055.665039</ele>
        <time>2008-05-24T12:38:21Z</time>
      </trkpt>
      <trkpt lat="42.143377" lon="1.576839">
        <ele>1058.548828</ele>
        <time>2008-05-24T12:38:17Z</time>
      </trkpt>
      <trkpt lat="42.143335" lon="1.576870">
        <ele>1058.068359</ele>
        <time>2008-05-24T12:38:09Z</time>
      </trkpt>
      <trkpt lat="42.143284" lon="1.576928">
        <ele>1059.510254</ele>
        <time>2008-05-24T12:37:38Z</time>
      </trkpt>
      <trkpt lat="42.143303" lon="1.576874">
        <ele>1064.797363</ele>
        <time>2008-05-24T12:37:28Z</time>
      </trkpt>
      <trkpt lat="42.143232" lon="1.576896">
        <ele>1062.874756</ele>
        <time>2008-05-24T12:37:21Z</time>
      </trkpt>
      <trkpt lat="42.143159" lon="1.576955">
        <ele>1059.510254</ele>
        <time>2008-05-24T12:37:15Z</time>
      </trkpt>
      <trkpt lat="42.143080" lon="1.577002">
        <ele>1058.548828</ele>
        <time>2008-05-24T12:37:07Z</time>
      </trkpt>
      <trkpt lat="42.143023" lon="1.577018">
        <ele>1055.665039</ele>
        <time>2008-05-24T12:37:02Z</time>
      </trkpt>
      <trkpt lat="42.142934" lon="1.577093">
        <ele>1053.742432</ele>
        <time>2008-05-24T12:36:58Z</time>
      </trkpt>
      <trkpt lat="42.142915" lon="1.577118">
        <ele>1046.532471</ele>
        <time>2008-05-24T12:36:53Z</time>
      </trkpt>
      <trkpt lat="42.142822" lon="1.577199">
        <ele>1038.361328</ele>
        <time>2008-05-24T12:36:46Z</time>
      </trkpt>
      <trkpt lat="42.142737" lon="1.577278">
        <ele>1029.709229</ele>
        <time>2008-05-24T12:36:39Z</time>
      </trkpt>
      <trkpt lat="42.142697" lon="1.577315">
        <ele>1027.306152</ele>
        <time>2008-05-24T12:36:33Z</time>
      </trkpt>
      <trkpt lat="42.142638" lon="1.577367">
        <ele>1029.228516</ele>
        <time>2008-05-24T12:36:29Z</time>
      </trkpt>
      <trkpt lat="42.142576" lon="1.577411">
        <ele>1032.112549</ele>
        <time>2008-05-24T12:36:23Z</time>
      </trkpt>
      <trkpt lat="42.142496" lon="1.577390">
        <ele>1046.532471</ele>
        <time>2008-05-24T12:36:16Z</time>
      </trkpt>
      <trkpt lat="42.142400" lon="1.577387">
        <ele>1048.454834</ele>
        <time>2008-05-24T12:36:10Z</time>
      </trkpt>
      <trkpt lat="42.142314" lon="1.577329">
        <ele>1052.300293</ele>
        <time>2008-05-24T12:36:04Z</time>
      </trkpt>
      <trkpt lat="42.142192" lon="1.577310">
        <ele>1053.742432</ele>
        <time>2008-05-24T12:35:56Z</time>
      </trkpt>
      <trkpt lat="42.142081" lon="1.577326">
        <ele>1046.532471</ele>
        <time>2008-05-24T12:35:49Z</time>
      </trkpt>
      <trkpt lat="42.142051" lon="1.577342">
        <ele>1044.129150</ele>
        <time>2008-05-24T12:35:48Z</time>
      </trkpt>
      <trkpt lat="42.141921" lon="1.577387">
        <ele>1040.283936</ele>
        <time>2008-05-24T12:35:40Z</time>
      </trkpt>
      <trkpt lat="42.141862" lon="1.577406">
        <ele>1038.361328</ele>
        <time>2008-05-24T12:35:35Z</time>
      </trkpt>
      <trkpt lat="42.141768" lon="1.577478">
        <ele>1038.361328</ele>
        <time>2008-05-24T12:35:29Z</time>
      </trkpt>
      <trkpt lat="42.141670" lon="1.577545">
        <ele>1034.996582</ele>
        <time>2008-05-24T12:35:23Z</time>
      </trkpt>
      <trkpt lat="42.141622" lon="1.577611">
        <ele>1029.228516</ele>
        <time>2008-05-24T12:35:16Z</time>
      </trkpt>
      <trkpt lat="42.141570" lon="1.577645">
        <ele>1027.786621</ele>
        <time>2008-05-24T12:35:10Z</time>
      </trkpt>
      <trkpt lat="42.141414" lon="1.577804">
        <ele>1030.189941</ele>
        <time>2008-05-24T12:35:02Z</time>
      </trkpt>
      <trkpt lat="42.141349" lon="1.577863">
        <ele>1029.228516</ele>
        <time>2008-05-24T12:34:56Z</time>
      </trkpt>
      <trkpt lat="42.141255" lon="1.577980">
        <ele>1024.902832</ele>
        <time>2008-05-24T12:34:50Z</time>
      </trkpt>
      <trkpt lat="42.141190" lon="1.578085">
        <ele>1023.460938</ele>
        <time>2008-05-24T12:34:45Z</time>
      </trkpt>
      <trkpt lat="42.141155" lon="1.578140">
        <ele>1022.499512</ele>
        <time>2008-05-24T12:34:40Z</time>
      </trkpt>
      <trkpt lat="42.141092" lon="1.578208">
        <ele>1020.576904</ele>
        <time>2008-05-24T12:34:33Z</time>
      </trkpt>
      <trkpt lat="42.141007" lon="1.578322">
        <ele>1015.289551</ele>
        <time>2008-05-24T12:34:27Z</time>
      </trkpt>
      <trkpt lat="42.140958" lon="1.578391">
        <ele>1013.366943</ele>
        <time>2008-05-24T12:34:21Z</time>
      </trkpt>
      <trkpt lat="42.140941" lon="1.578421">
        <ele>1011.444336</ele>
        <time>2008-05-24T12:34:16Z</time>
      </trkpt>
      <trkpt lat="42.140911" lon="1.578556">
        <ele>1022.980225</ele>
        <time>2008-05-24T12:33:48Z</time>
      </trkpt>
      <trkpt lat="42.140863" lon="1.578670">
        <ele>1022.980225</ele>
        <time>2008-05-24T12:33:42Z</time>
      </trkpt>
      <trkpt lat="42.140781" lon="1.578813">
        <ele>1018.654053</ele>
        <time>2008-05-24T12:33:34Z</time>
      </trkpt>
      <trkpt lat="42.140733" lon="1.578871">
        <ele>1014.328125</ele>
        <time>2008-05-24T12:33:29Z</time>
      </trkpt>
      <trkpt lat="42.140693" lon="1.578952">
        <ele>1011.444336</ele>
        <time>2008-05-24T12:33:23Z</time>
      </trkpt>
      <trkpt lat="42.140674" lon="1.579009">
        <ele>1011.925049</ele>
        <time>2008-05-24T12:33:18Z</time>
      </trkpt>
      <trkpt lat="42.140626" lon="1.579113">
        <ele>1011.925049</ele>
        <time>2008-05-24T12:33:11Z</time>
      </trkpt>
      <trkpt lat="42.140601" lon="1.579170">
        <ele>1011.925049</ele>
        <time>2008-05-24T12:33:06Z</time>
      </trkpt>
      <trkpt lat="42.140539" lon="1.579243">
        <ele>1014.808838</ele>
        <time>2008-05-24T12:33:00Z</time>
      </trkpt>
      <trkpt lat="42.140488" lon="1.579316">
        <ele>1018.173340</ele>
        <time>2008-05-24T12:32:55Z</time>
      </trkpt>
      <trkpt lat="42.140398" lon="1.579453">
        <ele>1016.731445</ele>
        <time>2008-05-24T12:32:48Z</time>
      </trkpt>
      <trkpt lat="42.140398" lon="1.579544">
        <ele>1021.057617</ele>
        <time>2008-05-24T12:32:42Z</time>
      </trkpt>
      <trkpt lat="42.140338" lon="1.579634">
        <ele>1022.018799</ele>
        <time>2008-05-24T12:32:36Z</time>
      </trkpt>
      <trkpt lat="42.140280" lon="1.579737">
        <ele>1014.808838</ele>
        <time>2008-05-24T12:32:30Z</time>
      </trkpt>
      <trkpt lat="42.140229" lon="1.579815">
        <ele>1010.002197</ele>
        <time>2008-05-24T12:32:24Z</time>
      </trkpt>
      <trkpt lat="42.140180" lon="1.579875">
        <ele>1009.521729</ele>
        <time>2008-05-24T12:32:19Z</time>
      </trkpt>
      <trkpt lat="42.140107" lon="1.580023">
        <ele>1008.560303</ele>
        <time>2008-05-24T12:32:13Z</time>
      </trkpt>
      <trkpt lat="42.140037" lon="1.580163">
        <ele>1010.963623</ele>
        <time>2008-05-24T12:32:07Z</time>
      </trkpt>
      <trkpt lat="42.140010" lon="1.580289">
        <ele>1017.692627</ele>
        <time>2008-05-24T12:32:00Z</time>
      </trkpt>
      <trkpt lat="42.139958" lon="1.580380">
        <ele>1016.731445</ele>
        <time>2008-05-24T12:31:54Z</time>
      </trkpt>
      <trkpt lat="42.139884" lon="1.580537">
        <ele>1017.692627</ele>
        <time>2008-05-24T12:31:48Z</time>
      </trkpt>
      <trkpt lat="42.139826" lon="1.580654">
        <ele>1012.886230</ele>
        <time>2008-05-24T12:31:42Z</time>
      </trkpt>
      <trkpt lat="42.139787" lon="1.580728">
        <ele>1010.963623</ele>
        <time>2008-05-24T12:31:40Z</time>
      </trkpt>
      <trkpt lat="42.139667" lon="1.580905">
        <ele>1001.350342</ele>
        <time>2008-05-24T12:31:33Z</time>
      </trkpt>
      <trkpt lat="42.139614" lon="1.581030">
        <ele>998.947021</ele>
        <time>2008-05-24T12:31:28Z</time>
      </trkpt>
      <trkpt lat="42.139564" lon="1.581160">
        <ele>997.985840</ele>
        <time>2008-05-24T12:31:20Z</time>
      </trkpt>
      <trkpt lat="42.139521" lon="1.581297">
        <ele>1000.389160</ele>
        <time>2008-05-24T12:31:13Z</time>
      </trkpt>
      <trkpt lat="42.139481" lon="1.581427">
        <ele>999.908447</ele>
        <time>2008-05-24T12:31:06Z</time>
      </trkpt>
      <trkpt lat="42.139463" lon="1.581501">
        <ele>997.985840</ele>
        <time>2008-05-24T12:31:00Z</time>
      </trkpt>
      <trkpt lat="42.139446" lon="1.581591">
        <ele>995.582520</ele>
        <time>2008-05-24T12:30:55Z</time>
      </trkpt>
      <trkpt lat="42.139416" lon="1.581693">
        <ele>994.621094</ele>
        <time>2008-05-24T12:30:49Z</time>
      </trkpt>
      <trkpt lat="42.139327" lon="1.581881">
        <ele>994.140625</ele>
        <time>2008-05-24T12:30:41Z</time>
      </trkpt>
      <trkpt lat="42.139313" lon="1.581999">
        <ele>992.698730</ele>
        <time>2008-05-24T12:30:34Z</time>
      </trkpt>
      <trkpt lat="42.139307" lon="1.582119">
        <ele>991.737305</ele>
        <time>2008-05-24T12:30:26Z</time>
      </trkpt>
      <trkpt lat="42.139276" lon="1.582254">
        <ele>990.295410</ele>
        <time>2008-05-24T12:30:17Z</time>
      </trkpt>
      <trkpt lat="42.139244" lon="1.582384">
        <ele>988.372803</ele>
        <time>2008-05-24T12:30:09Z</time>
      </trkpt>
      <trkpt lat="42.139184" lon="1.582514">
        <ele>986.449951</ele>
        <time>2008-05-24T12:30:00Z</time>
      </trkpt>
      <trkpt lat="42.139120" lon="1.582649">
        <ele>984.527344</ele>
        <time>2008-05-24T12:29:51Z</time>
      </trkpt>
      <trkpt lat="42.139069" lon="1.582768">
        <ele>983.565918</ele>
        <time>2008-05-24T12:29:43Z</time>
      </trkpt>
      <trkpt lat="42.139009" lon="1.582889">
        <ele>984.046631</ele>
        <time>2008-05-24T12:29:35Z</time>
      </trkpt>
      <trkpt lat="42.138951" lon="1.583000">
        <ele>983.085205</ele>
        <time>2008-05-24T12:29:27Z</time>
      </trkpt>
      <trkpt lat="42.138870" lon="1.583152">
        <ele>983.085205</ele>
        <time>2008-05-24T12:29:18Z</time>
      </trkpt>
      <trkpt lat="42.138817" lon="1.583259">
        <ele>981.643311</ele>
        <time>2008-05-24T12:29:10Z</time>
      </trkpt>
      <trkpt lat="42.138776" lon="1.583381">
        <ele>980.682129</ele>
        <time>2008-05-24T12:29:03Z</time>
      </trkpt>
      <trkpt lat="42.138727" lon="1.583510">
        <ele>979.239990</ele>
        <time>2008-05-24T12:28:54Z</time>
      </trkpt>
      <trkpt lat="42.138687" lon="1.583590">
        <ele>978.759521</ele>
        <time>2008-05-24T12:28:48Z</time>
      </trkpt>
      <trkpt lat="42.138624" lon="1.583703">
        <ele>977.798096</ele>
        <time>2008-05-24T12:28:40Z</time>
      </trkpt>
      <trkpt lat="42.138568" lon="1.583797">
        <ele>976.356201</ele>
        <time>2008-05-24T12:28:33Z</time>
      </trkpt>
      <trkpt lat="42.138485" lon="1.583941">
        <ele>972.991699</ele>
        <time>2008-05-24T12:28:26Z</time>
      </trkpt>
      <trkpt lat="42.138437" lon="1.584048">
        <ele>972.991699</ele>
        <time>2008-05-24T12:28:18Z</time>
      </trkpt>
      <trkpt lat="42.138378" lon="1.584141">
        <ele>972.991699</ele>
        <time>2008-05-24T12:28:11Z</time>
      </trkpt>
      <trkpt lat="42.138347" lon="1.584210">
        <ele>971.549316</ele>
        <time>2008-05-24T12:28:04Z</time>
      </trkpt>
      <trkpt lat="42.138332" lon="1.584340">
        <ele>972.030273</ele>
        <time>2008-05-24T12:27:56Z</time>
      </trkpt>
      <trkpt lat="42.138248" lon="1.584433">
        <ele>973.472412</ele>
        <time>2008-05-24T12:27:49Z</time>
      </trkpt>
      <trkpt lat="42.138223" lon="1.584499">
        <ele>972.991699</ele>
        <time>2008-05-24T12:27:45Z</time>
      </trkpt>
      <trkpt lat="42.138239" lon="1.584583">
        <ele>972.510986</ele>
        <time>2008-05-24T12:27:41Z</time>
      </trkpt>
      <trkpt lat="42.138288" lon="1.584769">
        <ele>971.068848</ele>
        <time>2008-05-24T12:27:32Z</time>
      </trkpt>
      <trkpt lat="42.138321" lon="1.584958">
        <ele>969.626953</ele>
        <time>2008-05-24T12:27:23Z</time>
      </trkpt>
      <trkpt lat="42.138340" lon="1.585155">
        <ele>968.184814</ele>
        <time>2008-05-24T12:27:14Z</time>
      </trkpt>
      <trkpt lat="42.138350" lon="1.585319">
        <ele>966.742920</ele>
        <time>2008-05-24T12:27:06Z</time>
      </trkpt>
      <trkpt lat="42.138371" lon="1.585490">
        <ele>965.301025</ele>
        <time>2008-05-24T12:26:58Z</time>
      </trkpt>
      <trkpt lat="42.138385" lon="1.585688">
        <ele>963.858887</ele>
        <time>2008-05-24T12:26:49Z</time>
      </trkpt>
      <trkpt lat="42.138399" lon="1.585948">
        <ele>961.936523</ele>
        <time>2008-05-24T12:26:38Z</time>
      </trkpt>
      <trkpt lat="42.138424" lon="1.586120">
        <ele>960.494385</ele>
        <time>2008-05-24T12:26:30Z</time>
      </trkpt>
      <trkpt lat="42.138448" lon="1.586312">
        <ele>959.533203</ele>
        <time>2008-05-24T12:26:21Z</time>
      </trkpt>
      <trkpt lat="42.138471" lon="1.586508">
        <ele>958.571777</ele>
        <time>2008-05-24T12:26:12Z</time>
      </trkpt>
      <trkpt lat="42.138464" lon="1.586666">
        <ele>957.610596</ele>
        <time>2008-05-24T12:26:05Z</time>
      </trkpt>
      <trkpt lat="42.138376" lon="1.586826">
        <ele>957.129883</ele>
        <time>2008-05-24T12:25:57Z</time>
      </trkpt>
      <trkpt lat="42.138254" lon="1.586914">
        <ele>956.168457</ele>
        <time>2008-05-24T12:25:50Z</time>
      </trkpt>
      <trkpt lat="42.138051" lon="1.586977">
        <ele>955.687744</ele>
        <time>2008-05-24T12:25:40Z</time>
      </trkpt>
      <trkpt lat="42.137836" lon="1.587033">
        <ele>955.687744</ele>
        <time>2008-05-24T12:25:30Z</time>
      </trkpt>
      <trkpt lat="42.137615" lon="1.587109">
        <ele>956.168457</ele>
        <time>2008-05-24T12:25:19Z</time>
      </trkpt>
      <trkpt lat="42.137503" lon="1.587138">
        <ele>956.649170</ele>
        <time>2008-05-24T12:25:13Z</time>
      </trkpt>
      <trkpt lat="42.137392" lon="1.587185">
        <ele>950.400635</ele>
        <time>2008-05-24T12:25:06Z</time>
      </trkpt>
      <trkpt lat="42.137251" lon="1.587220">
        <ele>948.477783</ele>
        <time>2008-05-24T12:24:57Z</time>
      </trkpt>
      <trkpt lat="42.137109" lon="1.587270">
        <ele>947.516602</ele>
        <time>2008-05-24T12:24:49Z</time>
      </trkpt>
      <trkpt lat="42.136988" lon="1.587312">
        <ele>946.555420</ele>
        <time>2008-05-24T12:24:42Z</time>
      </trkpt>
      <trkpt lat="42.136846" lon="1.587360">
        <ele>945.593994</ele>
        <time>2008-05-24T12:24:34Z</time>
      </trkpt>
      <trkpt lat="42.136663" lon="1.587439">
        <ele>943.190674</ele>
        <time>2008-05-24T12:24:24Z</time>
      </trkpt>
      <trkpt lat="42.136520" lon="1.587528">
        <ele>942.229492</ele>
        <time>2008-05-24T12:24:16Z</time>
      </trkpt>
      <trkpt lat="42.136407" lon="1.587690">
        <ele>946.074707</ele>
        <time>2008-05-24T12:24:07Z</time>
      </trkpt>
      <trkpt lat="42.136409" lon="1.587732">
        <ele>947.035889</ele>
        <time>2008-05-24T12:24:05Z</time>
      </trkpt>
      <trkpt lat="42.136431" lon="1.587845">
        <ele>953.284424</ele>
        <time>2008-05-24T12:23:59Z</time>
      </trkpt>
      <trkpt lat="42.136474" lon="1.588030">
        <ele>959.533203</ele>
        <time>2008-05-24T12:23:52Z</time>
      </trkpt>
      <trkpt lat="42.136539" lon="1.588178">
        <ele>958.091309</ele>
        <time>2008-05-24T12:23:45Z</time>
      </trkpt>
      <trkpt lat="42.136578" lon="1.588196">
        <ele>957.610596</ele>
        <time>2008-05-24T12:23:43Z</time>
      </trkpt>
      <trkpt lat="42.136675" lon="1.588342">
        <ele>954.245850</ele>
        <time>2008-05-24T12:23:35Z</time>
      </trkpt>
      <trkpt lat="42.136718" lon="1.588357">
        <ele>954.245850</ele>
        <time>2008-05-24T12:23:33Z</time>
      </trkpt>
      <trkpt lat="42.136812" lon="1.588464">
        <ele>952.803711</ele>
        <time>2008-05-24T12:23:27Z</time>
      </trkpt>
      <trkpt lat="42.136954" lon="1.588575">
        <ele>950.400635</ele>
        <time>2008-05-24T12:23:19Z</time>
      </trkpt>
      <trkpt lat="42.137080" lon="1.588732">
        <ele>948.958496</ele>
        <time>2008-05-24T12:23:10Z</time>
      </trkpt>
      <trkpt lat="42.137169" lon="1.588886">
        <ele>950.400635</ele>
        <time>2008-05-24T12:23:03Z</time>
      </trkpt>
      <trkpt lat="42.137274" lon="1.589074">
        <ele>948.477783</ele>
        <time>2008-05-24T12:22:54Z</time>
      </trkpt>
      <trkpt lat="42.137353" lon="1.589235">
        <ele>947.997314</ele>
        <time>2008-05-24T12:22:47Z</time>
      </trkpt>
      <trkpt lat="42.137455" lon="1.589397">
        <ele>945.113281</ele>
        <time>2008-05-24T12:22:39Z</time>
      </trkpt>
      <trkpt lat="42.137531" lon="1.589555">
        <ele>943.671387</ele>
        <time>2008-05-24T12:22:32Z</time>
      </trkpt>
      <trkpt lat="42.137647" lon="1.589634">
        <ele>946.074707</ele>
        <time>2008-05-24T12:22:26Z</time>
      </trkpt>
      <trkpt lat="42.137737" lon="1.589783">
        <ele>944.152100</ele>
        <time>2008-05-24T12:22:19Z</time>
      </trkpt>
      <trkpt lat="42.137839" lon="1.589954">
        <ele>941.268066</ele>
        <time>2008-05-24T12:22:11Z</time>
      </trkpt>
      <trkpt lat="42.137934" lon="1.590110">
        <ele>936.461426</ele>
        <time>2008-05-24T12:22:03Z</time>
      </trkpt>
      <trkpt lat="42.138026" lon="1.590247">
        <ele>931.654785</ele>
        <time>2008-05-24T12:21:56Z</time>
      </trkpt>
      <trkpt lat="42.138099" lon="1.590510">
        <ele>924.925781</ele>
        <time>2008-05-24T12:21:29Z</time>
      </trkpt>
      <trkpt lat="42.137946" lon="1.590628">
        <ele>931.174316</ele>
        <time>2008-05-24T12:21:21Z</time>
      </trkpt>
      <trkpt lat="42.137769" lon="1.590703">
        <ele>934.058105</ele>
        <time>2008-05-24T12:21:13Z</time>
      </trkpt>
      <trkpt lat="42.137583" lon="1.590708">
        <ele>941.748779</ele>
        <time>2008-05-24T12:21:04Z</time>
      </trkpt>
      <trkpt lat="42.137434" lon="1.590686">
        <ele>955.207031</ele>
        <time>2008-05-24T12:20:57Z</time>
      </trkpt>
      <trkpt lat="42.137253" lon="1.590575">
        <ele>964.820313</ele>
        <time>2008-05-24T12:20:48Z</time>
      </trkpt>
      <trkpt lat="42.137135" lon="1.590476">
        <ele>959.533203</ele>
        <time>2008-05-24T12:20:40Z</time>
      </trkpt>
      <trkpt lat="42.137128" lon="1.590476">
        <ele>957.129883</ele>
        <time>2008-05-24T12:20:39Z</time>
      </trkpt>
      <trkpt lat="42.137053" lon="1.590534">
        <ele>947.516602</ele>
        <time>2008-05-24T12:20:32Z</time>
      </trkpt>
      <trkpt lat="42.136965" lon="1.590634">
        <ele>936.941895</ele>
        <time>2008-05-24T12:20:26Z</time>
      </trkpt>
      <trkpt lat="42.136902" lon="1.590741">
        <ele>937.422607</ele>
        <time>2008-05-24T12:20:20Z</time>
      </trkpt>
      <trkpt lat="42.136877" lon="1.590814">
        <ele>935.019531</ele>
        <time>2008-05-24T12:20:16Z</time>
      </trkpt>
      <trkpt lat="42.136806" lon="1.590955">
        <ele>932.616211</ele>
        <time>2008-05-24T12:20:09Z</time>
      </trkpt>
      <trkpt lat="42.136733" lon="1.591038">
        <ele>933.577393</ele>
        <time>2008-05-24T12:20:03Z</time>
      </trkpt>
      <trkpt lat="42.136652" lon="1.591139">
        <ele>924.925781</ele>
        <time>2008-05-24T12:19:57Z</time>
      </trkpt>
      <trkpt lat="42.136584" lon="1.591309">
        <ele>919.157715</ele>
        <time>2008-05-24T12:19:50Z</time>
      </trkpt>
      <trkpt lat="42.136495" lon="1.591477">
        <ele>910.505859</ele>
        <time>2008-05-24T12:19:43Z</time>
      </trkpt>
      <trkpt lat="42.136395" lon="1.591620">
        <ele>906.660400</ele>
        <time>2008-05-24T12:19:34Z</time>
      </trkpt>
      <trkpt lat="42.136296" lon="1.591747">
        <ele>904.737793</ele>
        <time>2008-05-24T12:19:25Z</time>
      </trkpt>
      <trkpt lat="42.136223" lon="1.591839">
        <ele>903.295898</ele>
        <time>2008-05-24T12:19:19Z</time>
      </trkpt>
      <trkpt lat="42.136138" lon="1.591947">
        <ele>902.334473</ele>
        <time>2008-05-24T12:19:12Z</time>
      </trkpt>
      <trkpt lat="42.136032" lon="1.592058">
        <ele>903.295898</ele>
        <time>2008-05-24T12:19:04Z</time>
      </trkpt>
      <trkpt lat="42.136024" lon="1.592142">
        <ele>905.699219</ele>
        <time>2008-05-24T12:18:59Z</time>
      </trkpt>
    </trkseg>
  </trk>

</gpx>
